Observation data for Van Horn on 03/23/2019      Previous  Date  Next       Current Mesonet Observations  Soil Data  Daily Summary Page  Observations in Plain Language
KVA1 230500Z 26007KT 13/M08 A3005 RMK A01 T01341078  RH  022%=      5-min Rain = 0
KVA1 230501Z 27007KT 14/M08 A3005 RMK A01 T01351078  RH  022%=      5-min Rain = 0
KVA1 230502Z 27007KT 13/M08 A3005 RMK A01 T01341078  RH  022%=      5-min Rain = 0
KVA1 230503Z 26008KT 13/M08 A3005 RMK A01 T01321078  RH  022%=      5-min Rain = 0
KVA1 230504Z 26008KT 13/M08 A3005 RMK A01 T01311078  RH  023%=      5-min Rain = 0
KVA1 230505Z 27008KT 13/M08 A3005 RMK A01 T01311078  RH  023%=      5-min Rain = 0
KVA1 230506Z 27007KT 13/M08 A3005 RMK A01 T01311077  RH  023%=      5-min Rain = 0
KVA1 230507Z 27007KT 13/M08 A3005 RMK A01 T01311077  RH  023%=      5-min Rain = 0
KVA1 230508Z 26007KT 13/M08 A3005 RMK A01 T01311077  RH  023%=      5-min Rain = 0
KVA1 230509Z 27007KT 13/M08 A3005 RMK A01 T01311076  RH  023%=      5-min Rain = 0
KVA1 230510Z 27007KT 13/M08 A3005 RMK A01 T01311077  RH  023%=      5-min Rain = 0
KVA1 230511Z 27007KT 13/M08 A3005 RMK A01 T01291077  RH  023%=      5-min Rain = 0
KVA1 230512Z 27007KT 13/M08 A3005 RMK A01 T01281077  RH  023%=      5-min Rain = 0
KVA1 230513Z 27007KT 13/M08 A3005 RMK A01 T01271077  RH  023%=      5-min Rain = 0
KVA1 230514Z 27006KT 13/M08 A3005 RMK A01 T01251077  RH  024%=      5-min Rain = 0
KVA1 230515Z 27006KT 12/M08 A3005 RMK A01 T01241078  RH  024%=      5-min Rain = 0
KVA1 230516Z 28006KT 12/M08 A3005 RMK A01 T01221078  RH  024%=      5-min Rain = 0
KVA1 230517Z 28006KT 12/M08 A3005 RMK A01 T01201078  RH  024%=      5-min Rain = 0
KVA1 230518Z 29005KT 12/M08 A3005 RMK A01 T01201077  RH  025%=      5-min Rain = 0
KVA1 230519Z 29004KT 12/M08 A3005 RMK A01 T01181078  RH  025%=      5-min Rain = 0
KVA1 230520Z 31004KT 11/M08 A3006 RMK A01 T01141078  RH  025%=      5-min Rain = 0
KVA1 230521Z 33005KT 11/M08 A3006 RMK A01 T01111078  RH  026%=      5-min Rain = 0
KVA1 230522Z 33006KT 11/M08 A3006 RMK A01 T01101077  RH  026%=      5-min Rain = 0
KVA1 230523Z 32007KT 11/M08 A3006 RMK A01 T01101076  RH  026%=      5-min Rain = 0
KVA1 230524Z 30007KT 11/M08 A3006 RMK A01 T01111075  RH  026%=      5-min Rain = 0
KVA1 230525Z 28007KT 11/M08 A3006 RMK A01 T01131075  RH  026%=      5-min Rain = 0
KVA1 230526Z 27007KT 12/M07 A3006 RMK A01 T01171073  RH  026%=      5-min Rain = 0
KVA1 230527Z 27006KT 12/M07 A3006 RMK A01 T01201073  RH  025%=      5-min Rain = 0
KVA1 230528Z 28006KT 12/M07 A3006 RMK A01 T01241073  RH  025%=      5-min Rain = 0
KVA1 230529Z 30005KT 13/M07 A3006 RMK A01 T01251074  RH  024%=      5-min Rain = 0
KVA1 230530Z 32005KT 12/M08 A3006 RMK A01 T01231075  RH  024%=      5-min Rain = 0
KVA1 230531Z 32006KT 12/M08 A3006 RMK A01 T01211076  RH  025%=      5-min Rain = 0
KVA1 230532Z 32004KT 12/M08 A3006 RMK A01 T01191075  RH  025%=      5-min Rain = 0
KVA1 230533Z 31005KT 12/M08 A3006 RMK A01 T01201075  RH  025%=      5-min Rain = 0
KVA1 230534Z 30006KT 12/M07 A3006 RMK A01 T01231074  RH  025%=      5-min Rain = 0
KVA1 230535Z 29005KT 13/M07 A3006 RMK A01 T01251074  RH  024%=      5-min Rain = 0
KVA1 230536Z 30006KT 13/M07 A3006 RMK A01 T01261074  RH  024%=      5-min Rain = 0
KVA1 230537Z 31006KT 13/M08 A3006 RMK A01 T01251075  RH  024%=      5-min Rain = 0
KVA1 230538Z 30006KT 12/M07 A3006 RMK A01 T01241074  RH  024%=      5-min Rain = 0
KVA1 230539Z 30004KT 12/M07 A3006 RMK A01 T01241074  RH  024%=      5-min Rain = 0
KVA1 230540Z 30005KT 13/M07 A3006 RMK A01 T01251074  RH  024%=      5-min Rain = 0
KVA1 230541Z 30005KT 13/M07 A3006 RMK A01 T01261074  RH  024%=      5-min Rain = 0
KVA1 230542Z 29004KT 13/M07 A3006 RMK A01 T01301072  RH  024%=      5-min Rain = 0
KVA1 230543Z 29006KT 13/M07 A3006 RMK A01 T01311073  RH  023%=      5-min Rain = 0
KVA1 230544Z 28006KT 13/M07 A3006 RMK A01 T01311074  RH  023%=      5-min Rain = 0
KVA1 230545Z 29004KT 13/M07 A3006 RMK A01 T01301074  RH  023%=      5-min Rain = 0
KVA1 230546Z 33003KT 13/M08 A3006 RMK A01 T01281075  RH  024%=      5-min Rain = 0
KVA1 230547Z 32005KT 13/M07 A3006 RMK A01 T01271074  RH  024%=      5-min Rain = 0
KVA1 230548Z 29005KT 13/M07 A3007 RMK A01 T01281073  RH  024%=      5-min Rain = 0
KVA1 230549Z 29004KT 13/M07 A3007 RMK A01 T01301073  RH  024%=      5-min Rain = 0
KVA1 230550Z 29004KT 13/M07 A3007 RMK A01 T01311073  RH  023%=      5-min Rain = 0
KVA1 230551Z 28005KT 13/M07 A3007 RMK A01 T01321073  RH  023%=      5-min Rain = 0
KVA1 230552Z 28005KT 13/M07 A3007 RMK A01 T01301074  RH  023%=      5-min Rain = 0
KVA1 230553Z 28005KT 13/M08 A3007 RMK A01 T01281075  RH  024%=      5-min Rain = 0
KVA1 230554Z 27005KT 13/M07 A3007 RMK A01 T01271074  RH  024%=      5-min Rain = 0
KVA1 230555Z 27005KT 13/M07 A3007 RMK A01 T01271074  RH  024%=      5-min Rain = 0
KVA1 230556Z 27005KT 13/M07 A3007 RMK A01 T01271074  RH  024%=      5-min Rain = 0
KVA1 230557Z 27005KT 13/M07 A3007 RMK A01 T01261074  RH  024%=      5-min Rain = 0
KVA1 230558Z 28005KT 12/M08 A3007 RMK A01 T01241075  RH  024%=      5-min Rain = 0
KVA1 230559Z 28004KT 12/M08 A3007 RMK A01 T01221075  RH  024%=      5-min Rain = 0
KVA1 230600Z 28005KT 12/M08 A3007 RMK A01 T01201075  RH  025%=      5-min Rain = 0
KVA1 230601Z 29003KT 12/M08 A3007 RMK A01 T01191075  RH  025%=      5-min Rain = 0
KVA1 230602Z 30003KT 12/M07 A3007 RMK A01 T01191074  RH  025%=      5-min Rain = 0
KVA1 230603Z 28004KT 12/M07 A3007 RMK A01 T01181074  RH  025%=      5-min Rain = 0
KVA1 230604Z 27004KT 12/M07 A3007 RMK A01 T01181074  RH  025%=      5-min Rain = 0
KVA1 230605Z 27003KT 12/M07 A3007 RMK A01 T01171074  RH  026%=      5-min Rain = 0
KVA1 230606Z 28004KT 12/M08 A3007 RMK A01 T01151075  RH  026%=      5-min Rain = 0
KVA1 230607Z 28004KT 11/M08 A3007 RMK A01 T01131075  RH  026%=      5-min Rain = 0
KVA1 230608Z 29003KT 11/M08 A3007 RMK A01 T01111075  RH  026%=      5-min Rain = 0
KVA1 230609Z 28004KT 11/M08 A3007 RMK A01 T01111075  RH  026%=      5-min Rain = 0
KVA1 230610Z 28003KT 11/M07 A3007 RMK A01 T01111074  RH  027%=      5-min Rain = 0
KVA1 230611Z 28003KT 11/M07 A3007 RMK A01 T01101074  RH  027%=      5-min Rain = 0
KVA1 230612Z 29003KT 11/M07 A3007 RMK A01 T01101074  RH  027%=      5-min Rain = 0
KVA1 230613Z 30003KT 11/M08 A3007 RMK A01 T01091075  RH  027%=      5-min Rain = 0
KVA1 230614Z 30003KT 11/M08 A3007 RMK A01 T01081075  RH  027%=      5-min Rain = 0
KVA1 230615Z 30003KT 11/M08 A3007 RMK A01 T01071075  RH  027%=      5-min Rain = 0
KVA1 230616Z 29003KT 11/M08 A3007 RMK A01 T01061075  RH  027%=      5-min Rain = 0
KVA1 230617Z 29004KT 11/M08 A3007 RMK A01 T01051075  RH  027%=      5-min Rain = 0
KVA1 230618Z 28005KT 10/M08 A3007 RMK A01 T01041076  RH  027%=      5-min Rain = 0
KVA1 230619Z 27005KT 10/M08 A3007 RMK A01 T01031076  RH  028%=      5-min Rain = 0
KVA1 230620Z 27005KT 10/M08 A3007 RMK A01 T01031076  RH  028%=      5-min Rain = 0
KVA1 230621Z 28005KT 10/M08 A3007 RMK A01 T01041075  RH  028%=      5-min Rain = 0
KVA1 230622Z 28005KT 11/M08 A3006 RMK A01 T01051075  RH  028%=      5-min Rain = 0
KVA1 230623Z 28004KT 11/M07 A3006 RMK A01 T01061074  RH  027%=      5-min Rain = 0
KVA1 230624Z 28004KT 11/M08 A3006 RMK A01 T01061075  RH  027%=      5-min Rain = 0
KVA1 230625Z 28004KT 11/M08 A3006 RMK A01 T01071075  RH  027%=      5-min Rain = 0
KVA1 230626Z 28005KT 11/M08 A3006 RMK A01 T01071075  RH  027%=      5-min Rain = 0
KVA1 230627Z 27007KT 11/M08 A3006 RMK A01 T01071075  RH  027%=      5-min Rain = 0
KVA1 230628Z 27006KT 11/M08 A3006 RMK A01 T01061076  RH  027%=      5-min Rain = 0
KVA1 230629Z 27006KT 11/M08 A3006 RMK A01 T01061076  RH  027%=      5-min Rain = 0
KVA1 230630Z 27007KT 11/M08 A3006 RMK A01 T01081075  RH  027%=      5-min Rain = 0
KVA1 230631Z 27008KT 11/M08 A3006 RMK A01 T01081076  RH  027%=      5-min Rain = 0
KVA1 230632Z 27008KT 11/M08 A3006 RMK A01 T01091076  RH  027%=      5-min Rain = 0
KVA1 230633Z 27007KT 11/M08 A3006 RMK A01 T01091076  RH  026%=      5-min Rain = 0
KVA1 230634Z 26007KT 11/M08 A3006 RMK A01 T01101077  RH  026%=      5-min Rain = 0
KVA1 230635Z 25007KT 11/M08 A3006 RMK A01 T01131076  RH  026%=      5-min Rain = 0
KVA1 230636Z 25007KT 11/M08 A3006 RMK A01 T01141077  RH  026%=      5-min Rain = 0
KVA1 230637Z 26006KT 11/M08 A3006 RMK A01 T01141077  RH  025%=      5-min Rain = 0
KVA1 230638Z 26007KT 11/M08 A3006 RMK A01 T01121078  RH  026%=      5-min Rain = 0
KVA1 230639Z 27007KT 11/M08 A3006 RMK A01 T01121077  RH  026%=      5-min Rain = 0
KVA1 230640Z 26008KT 11/M08 A3006 RMK A01 T01111077  RH  026%=      5-min Rain = 0
KVA1 230641Z 26008KT 11/M08 A3006 RMK A01 T01101077  RH  026%=      5-min Rain = 0
KVA1 230642Z 25007KT 11/M08 A3006 RMK A01 T01101077  RH  026%=      5-min Rain = 0
KVA1 230643Z 25007KT 11/M08 A3006 RMK A01 T01111076  RH  026%=      5-min Rain = 0
KVA1 230644Z 24007KT 11/M08 A3006 RMK A01 T01111076  RH  026%=      5-min Rain = 0
KVA1 230645Z 24006KT 11/M08 A3006 RMK A01 T01131075  RH  026%=      5-min Rain = 0
KVA1 230646Z 24006KT 12/M08 A3006 RMK A01 T01151075  RH  026%=      5-min Rain = 0
KVA1 230647Z 25007KT 12/M07 A3006 RMK A01 T01161074  RH  026%=      5-min Rain = 0
KVA1 230648Z 26007KT 12/M08 A3006 RMK A01 T01161075  RH  026%=      5-min Rain = 0
KVA1 230649Z 25007KT 11/M08 A3006 RMK A01 T01141076  RH  026%=      5-min Rain = 0
KVA1 230650Z 25007KT 11/M08 A3006 RMK A01 T01131076  RH  026%=      5-min Rain = 0
KVA1 230651Z 24008KT 11/M08 A3006 RMK A01 T01121075  RH  026%=      5-min Rain = 0
KVA1 230652Z 25007KT 11/M07 A3006 RMK A01 T01131074  RH  026%=      5-min Rain = 0
KVA1 230653Z 25007KT 11/M08 A3006 RMK A01 T01131075  RH  026%=      5-min Rain = 0
KVA1 230654Z 25006KT 11/M08 A3006 RMK A01 T01131076  RH  026%=      5-min Rain = 0
KVA1 230655Z 26006KT 11/M08 A3006 RMK A01 T01131076  RH  026%=      5-min Rain = 0
KVA1 230656Z 26007KT 11/M08 A3006 RMK A01 T01121076  RH  026%=      5-min Rain = 0
KVA1 230657Z 26007KT 11/M08 A3006 RMK A01 T01101077  RH  026%=      5-min Rain = 0
KVA1 230658Z 25007KT 11/M08 A3006 RMK A01 T01091077  RH  026%=      5-min Rain = 0
KVA1 230659Z 26007KT 11/M08 A3006 RMK A01 T01101076  RH  026%=      5-min Rain = 0
KVA1 230700Z 25007KT 11/M08 A3006 RMK A01 T01101077  RH  026%=      5-min Rain = 0
KVA1 230701Z 25007KT 11/M08 A3006 RMK A01 T01101077  RH  026%=      5-min Rain = 0
KVA1 230702Z 25007KT 11/M08 A3006 RMK A01 T01101077  RH  026%=      5-min Rain = 0
KVA1 230703Z 25007KT 11/M08 A3006 RMK A01 T01091077  RH  026%=      5-min Rain = 0
KVA1 230704Z 26006KT 11/M08 A3006 RMK A01 T01081078  RH  026%=      5-min Rain = 0
KVA1 230705Z 26006KT 11/M08 A3006 RMK A01 T01071078  RH  027%=      5-min Rain = 0
KVA1 230706Z 26007KT 11/M08 A3006 RMK A01 T01061078  RH  027%=      5-min Rain = 0
KVA1 230707Z 25007KT 11/M08 A3006 RMK A01 T01051078  RH  027%=      5-min Rain = 0
KVA1 230708Z 25006KT 11/M08 A3006 RMK A01 T01051078  RH  027%=      5-min Rain = 0
KVA1 230709Z 25006KT 10/M08 A3006 RMK A01 T01041078  RH  027%=      5-min Rain = 0
KVA1 230710Z 25006KT 10/M08 A3006 RMK A01 T01031079  RH  027%=      5-min Rain = 0
KVA1 230711Z 25005KT 10/M08 A3006 RMK A01 T01021079  RH  027%=      5-min Rain = 0
KVA1 230712Z 24004KT 10/M08 A3006 RMK A01 T01011079  RH  027%=      5-min Rain = 0
KVA1 230713Z 22004KT 10/M08 A3006 RMK A01 T00991078  RH  028%=      5-min Rain = 0
KVA1 230714Z 20003KT 10/M08 A3006 RMK A01 T00971077  RH  029%=      5-min Rain = 0
KVA1 230715Z 21004KT 10/M08 A3006 RMK A01 T00961076  RH  029%=      5-min Rain = 0
KVA1 230716Z 22004KT 09/M08 A3006 RMK A01 T00941076  RH  029%=      5-min Rain = 0
KVA1 230717Z 23006KT 09/M08 A3006 RMK A01 T00931076  RH  030%=      5-min Rain = 0
KVA1 230718Z 23006KT 09/M08 A3006 RMK A01 T00921076  RH  030%=      5-min Rain = 0
KVA1 230719Z 24007KT 09/M08 A3006 RMK A01 T00911076  RH  030%=      5-min Rain = 0
KVA1 230720Z 24006KT 09/M08 A3006 RMK A01 T00921076  RH  030%=      5-min Rain = 0
KVA1 230721Z 24007KT 09/M08 A3006 RMK A01 T00911076  RH  030%=      5-min Rain = 0
KVA1 230722Z 24007KT 09/M08 A3006 RMK A01 T00921077  RH  030%=      5-min Rain = 0
KVA1 230723Z 24008KT 09/M08 A3006 RMK A01 T00931077  RH  029%=      5-min Rain = 0
KVA1 230724Z 23008KT 10/M08 A3006 RMK A01 T00951077  RH  029%=      5-min Rain = 0
KVA1 230725Z 24007KT 10/M08 A3006 RMK A01 T00971077  RH  029%=      5-min Rain = 0
KVA1 230726Z 24006KT 10/M08 A3005 RMK A01 T01001077  RH  028%=      5-min Rain = 0
KVA1 230727Z 24007KT 10/M08 A3005 RMK A01 T01011077  RH  028%=      5-min Rain = 0
KVA1 230728Z 24007KT 10/M08 A3005 RMK A01 T01011078  RH  028%=      5-min Rain = 0
KVA1 230729Z 24008KT 10/M08 A3005 RMK A01 T01021078  RH  027%=      5-min Rain = 0
KVA1 230730Z 24006KT 11/M08 A3005 RMK A01 T01051077  RH  027%=      5-min Rain = 0
KVA1 230731Z 24005KT 11/M08 A3005 RMK A01 T01071078  RH  026%=      5-min Rain = 0
KVA1 230732Z 25006KT 11/M08 A3006 RMK A01 T01081079  RH  026%=      5-min Rain = 0
KVA1 230733Z 24007KT 11/M08 A3005 RMK A01 T01091079  RH  026%=      5-min Rain = 0
KVA1 230734Z 23007KT 11/M08 A3005 RMK A01 T01101079  RH  026%=      5-min Rain = 0
KVA1 230735Z 23007KT 11/M08 A3005 RMK A01 T01131079  RH  025%=      5-min Rain = 0
KVA1 230736Z 23007KT 11/M08 A3006 RMK A01 T01141079  RH  025%=      5-min Rain = 0
KVA1 230737Z 22007KT 12/M08 A3006 RMK A01 T01151078  RH  025%=      5-min Rain = 0
KVA1 230738Z 22006KT 12/M08 A3006 RMK A01 T01161079  RH  025%=      5-min Rain = 0
KVA1 230739Z 23006KT 12/M08 A3006 RMK A01 T01171078  RH  025%=      5-min Rain = 0
KVA1 230740Z 23006KT 12/M08 A3006 RMK A01 T01171079  RH  025%=      5-min Rain = 0
KVA1 230741Z 24005KT 12/M08 A3006 RMK A01 T01151080  RH  025%=      5-min Rain = 0
KVA1 230742Z 24005KT 11/M08 A3006 RMK A01 T01121081  RH  025%=      5-min Rain = 0
KVA1 230743Z 23005KT 11/M08 A3006 RMK A01 T01111080  RH  025%=      5-min Rain = 0
KVA1 230744Z 25006KT 11/M08 A3006 RMK A01 T01101079  RH  026%=      5-min Rain = 0
KVA1 230745Z 24006KT 11/M08 A3006 RMK A01 T01101079  RH  026%=      5-min Rain = 0
KVA1 230746Z 23006KT 11/M08 A3006 RMK A01 T01131078  RH  025%=      5-min Rain = 0
KVA1 230747Z 23006KT 12/M08 A3006 RMK A01 T01161078  RH  025%=      5-min Rain = 0
KVA1 230748Z 24005KT 12/M08 A3006 RMK A01 T01181079  RH  024%=      5-min Rain = 0
KVA1 230749Z 24005KT 12/M08 A3006 RMK A01 T01181080  RH  024%=      5-min Rain = 0
KVA1 230750Z 24006KT 12/M08 A3006 RMK A01 T01171081  RH  024%=      5-min Rain = 0
KVA1 230751Z 24007KT 12/M08 A3006 RMK A01 T01171082  RH  024%=      5-min Rain = 0
KVA1 230752Z 23008KT 12/M08 A3006 RMK A01 T01151083  RH  024%=      5-min Rain = 0
KVA1 230753Z 25006KT 12/M08 A3006 RMK A01 T01151083  RH  024%=      5-min Rain = 0
KVA1 230754Z 24006KT 11/M08 A3006 RMK A01 T01131083  RH  024%=      5-min Rain = 0
KVA1 230755Z 24007KT 11/M08 A3006 RMK A01 T01111084  RH  025%=      5-min Rain = 0
KVA1 230756Z 25006KT 11/M08 A3006 RMK A01 T01111083  RH  025%=      5-min Rain = 0
KVA1 230757Z 24007KT 11/M08 A3006 RMK A01 T01101084  RH  025%=      5-min Rain = 0
KVA1 230758Z 23008KT 11/M08 A3006 RMK A01 T01101083  RH  025%=      5-min Rain = 0
KVA1 230759Z 25007KT 11/M08 A3006 RMK A01 T01091083  RH  025%=      5-min Rain = 0
KVA1 230800Z 24007KT 11/M08 A3006 RMK A01 T01081084  RH  025%=      5-min Rain = 0
KVA1 230801Z 23007KT 11/M08 A3006 RMK A01 T01061084  RH  025%=      5-min Rain = 0
KVA1 230802Z 23007KT 11/M08 A3006 RMK A01 T01051084  RH  026%=      5-min Rain = 0
KVA1 230803Z 24007KT 10/M08 A3006 RMK A01 T01041084  RH  026%=      5-min Rain = 0
KVA1 230804Z 23008KT 10/M08 A3006 RMK A01 T01041084  RH  026%=      5-min Rain = 0
KVA1 230805Z 23008KT 11/M08 A3006 RMK A01 T01051084  RH  026%=      5-min Rain = 0
KVA1 230806Z 23007KT 11/M08 A3006 RMK A01 T01071084  RH  025%=      5-min Rain = 0
KVA1 230807Z 23006KT 11/M08 A3006 RMK A01 T01081084  RH  025%=      5-min Rain = 0
KVA1 230808Z 23007KT 11/M09 A3006 RMK A01 T01071085  RH  025%=      5-min Rain = 0
KVA1 230809Z 23007KT 11/M09 A3006 RMK A01 T01051085  RH  025%=      5-min Rain = 0
KVA1 230810Z 22008KT 10/M09 A3006 RMK A01 T01041085  RH  026%=      5-min Rain = 0
KVA1 230811Z 22008KT 11/M09 A3006 RMK A01 T01051085  RH  026%=      5-min Rain = 0
KVA1 230812Z 22008KT 11/M08 A3006 RMK A01 T01071084  RH  025%=      5-min Rain = 0
KVA1 230813Z 24006KT 11/M08 A3006 RMK A01 T01101084  RH  025%=      5-min Rain = 0
KVA1 230814Z 23008KT 11/M09 A3006 RMK A01 T01091085  RH  025%=      5-min Rain = 0
KVA1 230815Z 23008KT 11/M09 A3006 RMK A01 T01081085  RH  025%=      5-min Rain = 0
KVA1 230816Z 22008KT 11/M08 A3006 RMK A01 T01091084  RH  025%=      5-min Rain = 0
KVA1 230817Z 23007KT 11/M08 A3006 RMK A01 T01101083  RH  025%=      5-min Rain = 0
KVA1 230818Z 23008KT 11/M08 A3006 RMK A01 T01101084  RH  025%=      5-min Rain = 0
KVA1 230819Z 23008KT 11/M08 A3006 RMK A01 T01091084  RH  025%=      5-min Rain = 0
KVA1 230820Z 23008KT 11/M08 A3006 RMK A01 T01081084  RH  025%=      5-min Rain = 0
KVA1 230821Z 23007KT 11/M08 A3006 RMK A01 T01071083  RH  025%=      5-min Rain = 0
KVA1 230822Z 23007KT 11/M08 A3006 RMK A01 T01061083  RH  026%=      5-min Rain = 0
KVA1 230823Z 23008KT 11/M08 A3006 RMK A01 T01061083  RH  026%=      5-min Rain = 0
KVA1 230824Z 24008KT 11/M08 A3006 RMK A01 T01061083  RH  026%=      5-min Rain = 0
KVA1 230825Z 23008KT 11/M08 A3006 RMK A01 T01061084  RH  026%=      5-min Rain = 0
KVA1 230826Z 23008KT 11/M08 A3006 RMK A01 T01081084  RH  025%=      5-min Rain = 0
KVA1 230827Z 23007KT 11/M08 A3006 RMK A01 T01111084  RH  025%=      5-min Rain = 0
KVA1 230828Z 24007KT 11/M09 A3006 RMK A01 T01131085  RH  024%=      5-min Rain = 0
KVA1 230829Z 24006KT 11/M09 A3006 RMK A01 T01131085  RH  024%=      5-min Rain = 0
KVA1 230830Z 26007KT 11/M09 A3006 RMK A01 T01121085  RH  024%=      5-min Rain = 0
KVA1 230831Z 26007KT 11/M09 A3006 RMK A01 T01121085  RH  024%=      5-min Rain = 0
KVA1 230832Z 25008KT 11/M09 A3006 RMK A01 T01111085  RH  024%=      5-min Rain = 0
KVA1 230833Z 24007KT 11/M09 A3005 RMK A01 T01111085  RH  024%=      5-min Rain = 0
KVA1 230834Z 25009KT 11/M09 A3005 RMK A01 T01121085  RH  024%=      5-min Rain = 0
KVA1 230835Z 24007KT 11/M09 A3005 RMK A01 T01131085  RH  024%=      5-min Rain = 0
KVA1 230836Z 24007KT 11/M09 A3005 RMK A01 T01141085  RH  024%=      5-min Rain = 0
KVA1 230837Z 24007KT 11/M09 A3006 RMK A01 T01141085  RH  024%=      5-min Rain = 0
KVA1 230838Z 24007KT 11/M09 A3006 RMK A01 T01121086  RH  024%=      5-min Rain = 0
KVA1 230839Z 24008KT 11/M09 A3005 RMK A01 T01101086  RH  024%=      5-min Rain = 0
KVA1 230840Z 24008KT 11/M09 A3006 RMK A01 T01101086  RH  024%=      5-min Rain = 0
KVA1 230841Z 24008KT 11/M09 A3006 RMK A01 T01101085  RH  024%=      5-min Rain = 0
KVA1 230842Z 23008KT 11/M09 A3005 RMK A01 T01101085  RH  025%=      5-min Rain = 0
KVA1 230843Z 23008KT 11/M09 A3005 RMK A01 T01111085  RH  024%=      5-min Rain = 0
KVA1 230844Z 24006KT 11/M09 A3006 RMK A01 T01121085  RH  024%=      5-min Rain = 0
KVA1 230845Z 23007KT 11/M09 A3005 RMK A01 T01111085  RH  024%=      5-min Rain = 0
KVA1 230846Z 24007KT 11/M09 A3005 RMK A01 T01101085  RH  025%=      5-min Rain = 0
KVA1 230847Z 23006KT 11/M08 A3005 RMK A01 T01091084  RH  025%=      5-min Rain = 0
KVA1 230848Z 23008KT 11/M08 A3005 RMK A01 T01091084  RH  025%=      5-min Rain = 0
KVA1 230849Z 25007KT 11/M08 A3006 RMK A01 T01091083  RH  025%=      5-min Rain = 0
KVA1 230850Z 24007KT 11/M08 A3006 RMK A01 T01081084  RH  025%=      5-min Rain = 0
KVA1 230851Z 24006KT 11/M08 A3006 RMK A01 T01061084  RH  025%=      5-min Rain = 0
KVA1 230852Z 25007KT 11/M08 A3006 RMK A01 T01051083  RH  026%=      5-min Rain = 0
KVA1 230853Z 24007KT 10/M08 A3006 RMK A01 T01031083  RH  026%=      5-min Rain = 0
KVA1 230854Z 24008KT 10/M08 A3006 RMK A01 T01011083  RH  027%=      5-min Rain = 0
KVA1 230855Z 24008KT 10/M08 A3006 RMK A01 T01001083  RH  027%=      5-min Rain = 0
KVA1 230856Z 24008KT 10/M08 A3006 RMK A01 T01011082  RH  027%=      5-min Rain = 0
KVA1 230857Z 23008KT 10/M08 A3006 RMK A01 T01011083  RH  027%=      5-min Rain = 0
KVA1 230858Z 23008KT 10/M08 A3006 RMK A01 T01021083  RH  026%=      5-min Rain = 0
KVA1 230859Z 23009KT 10/M08 A3006 RMK A01 T01031083  RH  026%=      5-min Rain = 0
KVA1 230900Z 24007KT 10/M08 A3006 RMK A01 T01041083  RH  026%=      5-min Rain = 0
KVA1 230901Z 23007KT 10/M08 A3006 RMK A01 T01041083  RH  026%=      5-min Rain = 0
KVA1 230902Z 22007KT 10/M08 A3006 RMK A01 T01041083  RH  026%=      5-min Rain = 0
KVA1 230903Z 23006KT 10/M08 A3006 RMK A01 T01031083  RH  026%=      5-min Rain = 0
KVA1 230904Z 23005KT 10/M08 A3006 RMK A01 T01011083  RH  026%=      5-min Rain = 0
KVA1 230905Z 23007KT 10/M08 A3006 RMK A01 T00991083  RH  027%=      5-min Rain = 0
KVA1 230906Z 23007KT 10/M08 A3006 RMK A01 T00991083  RH  027%=      5-min Rain = 0
KVA1 230907Z 22007KT 10/M08 A3006 RMK A01 T01001083  RH  027%=      5-min Rain = 0
KVA1 230908Z 22007KT 10/M08 A3006 RMK A01 T01001083  RH  027%=      5-min Rain = 0
KVA1 230909Z 23006KT 10/M08 A3006 RMK A01 T01001083  RH  027%=      5-min Rain = 0
KVA1 230910Z 22006KT 10/M08 A3006 RMK A01 T01011082  RH  027%=      5-min Rain = 0
KVA1 230911Z 22006KT 10/M08 A3006 RMK A01 T01001082  RH  027%=      5-min Rain = 0
KVA1 230912Z 21007KT 10/M08 A3006 RMK A01 T00991082  RH  027%=      5-min Rain = 0
KVA1 230913Z 22006KT 10/M08 A3006 RMK A01 T00981081  RH  027%=      5-min Rain = 0
KVA1 230914Z 22006KT 10/M08 A3006 RMK A01 T00971082  RH  028%=      5-min Rain = 0
KVA1 230915Z 22008KT 10/M08 A3006 RMK A01 T00971082  RH  028%=      5-min Rain = 0
KVA1 230916Z 22007KT 10/M08 A3006 RMK A01 T00971082  RH  027%=      5-min Rain = 0
KVA1 230917Z 22007KT 10/M08 A3006 RMK A01 T00991082  RH  027%=      5-min Rain = 0
KVA1 230918Z 22007KT 10/M08 A3006 RMK A01 T01001082  RH  027%=      5-min Rain = 0
KVA1 230919Z 22007KT 10/M08 A3006 RMK A01 T01001083  RH  027%=      5-min Rain = 0
KVA1 230920Z 23007KT 10/M08 A3006 RMK A01 T01011084  RH  026%=      5-min Rain = 0
KVA1 230921Z 22007KT 10/M08 A3006 RMK A01 T01041083  RH  026%=      5-min Rain = 0
KVA1 230922Z 22006KT 11/M08 A3006 RMK A01 T01051083  RH  026%=      5-min Rain = 0
KVA1 230923Z 22008KT 11/M08 A3005 RMK A01 T01051084  RH  026%=      5-min Rain = 0
KVA1 230924Z 21007KT 11/M08 A3005 RMK A01 T01051084  RH  026%=      5-min Rain = 0
KVA1 230925Z 22006KT 11/M08 A3005 RMK A01 T01051084  RH  026%=      5-min Rain = 0
KVA1 230926Z 21006KT 11/M08 A3005 RMK A01 T01061084  RH  025%=      5-min Rain = 0
KVA1 230927Z 21007KT 11/M08 A3005 RMK A01 T01061084  RH  025%=      5-min Rain = 0
KVA1 230928Z 22008KT 11/M08 A3005 RMK A01 T01061084  RH  025%=      5-min Rain = 0
KVA1 230929Z 21007KT 11/M08 A3005 RMK A01 T01061084  RH  025%=      5-min Rain = 0
KVA1 230930Z 22007KT 11/M08 A3005 RMK A01 T01061084  RH  025%=      5-min Rain = 0
KVA1 230931Z 21008KT 11/M08 A3005 RMK A01 T01051084  RH  026%=      5-min Rain = 0
KVA1 230932Z 22008KT 10/M08 A3005 RMK A01 T01041084  RH  026%=      5-min Rain = 0
KVA1 230933Z 22007KT 10/M08 A3005 RMK A01 T01041084  RH  026%=      5-min Rain = 0
KVA1 230934Z 22007KT 10/M08 A3005 RMK A01 T01041084  RH  026%=      5-min Rain = 0
KVA1 230935Z 22007KT 10/M09 A3005 RMK A01 T01031085  RH  026%=      5-min Rain = 0
KVA1 230936Z 22007KT 10/M09 A3005 RMK A01 T01031085  RH  026%=      5-min Rain = 0
KVA1 230937Z 22007KT 10/M09 A3005 RMK A01 T01021085  RH  026%=      5-min Rain = 0
KVA1 230938Z 22007KT 10/M09 A3005 RMK A01 T01011085  RH  026%=      5-min Rain = 0
KVA1 230939Z 22007KT 10/M09 A3005 RMK A01 T01001085  RH  026%=      5-min Rain = 0
KVA1 230940Z 22007KT 10/M09 A3005 RMK A01 T01011085  RH  026%=      5-min Rain = 0
KVA1 230941Z 22007KT 10/M09 A3005 RMK A01 T01021085  RH  026%=      5-min Rain = 0
KVA1 230942Z 22007KT 10/M09 A3005 RMK A01 T01031085  RH  026%=      5-min Rain = 0
KVA1 230943Z 22007KT 11/M09 A3005 RMK A01 T01051085  RH  026%=      5-min Rain = 0
KVA1 230944Z 22007KT 11/M09 A3005 RMK A01 T01051085  RH  025%=      5-min Rain = 0
KVA1 230945Z 22006KT 11/M08 A3005 RMK A01 T01081084  RH  025%=      5-min Rain = 0
KVA1 230946Z 21006KT 11/M09 A3005 RMK A01 T01101085  RH  025%=      5-min Rain = 0
KVA1 230947Z 21006KT 11/M09 A3005 RMK A01 T01101086  RH  025%=      5-min Rain = 0
KVA1 230948Z 21007KT 11/M09 A3005 RMK A01 T01081086  RH  025%=      5-min Rain = 0
KVA1 230949Z 21006KT 11/M09 A3005 RMK A01 T01071086  RH  025%=      5-min Rain = 0
KVA1 230950Z 20005KT 11/M09 A3005 RMK A01 T01061086  RH  025%=      5-min Rain = 0
KVA1 230951Z 20007KT 11/M09 A3005 RMK A01 T01061086  RH  025%=      5-min Rain = 0
KVA1 230952Z 20008KT 11/M09 A3005 RMK A01 T01061086  RH  025%=      5-min Rain = 0
KVA1 230953Z 21009KT 11/M09 A3005 RMK A01 T01061086  RH  025%=      5-min Rain = 0
KVA1 230954Z 19007KT 11/M09 A3005 RMK A01 T01081085  RH  025%=      5-min Rain = 0
KVA1 230955Z 19007KT 11/M09 A3005 RMK A01 T01071086  RH  025%=      5-min Rain = 0
KVA1 230956Z 20007KT 10/M09 A3005 RMK A01 T01021086  RH  026%=      5-min Rain = 0
KVA1 230957Z 21007KT 10/M09 A3005 RMK A01 T00981086  RH  026%=      5-min Rain = 0
KVA1 230958Z 21006KT 10/M09 A3005 RMK A01 T00961086  RH  027%=      5-min Rain = 0
KVA1 230959Z 21005KT 09/M09 A3005 RMK A01 T00941085  RH  027%=      5-min Rain = 0
KVA1 231000Z 21005KT 09/M09 A3005 RMK A01 T00921085  RH  028%=      5-min Rain = 0
KVA1 231001Z 20006KT 09/M09 A3005 RMK A01 T00901085  RH  028%=      5-min Rain = 0
KVA1 231002Z 20007KT 09/M09 A3005 RMK A01 T00891085  RH  028%=      5-min Rain = 0
KVA1 231003Z 21008KT 09/M08 A3005 RMK A01 T00891084  RH  029%=      5-min Rain = 0
KVA1 231004Z 21008KT 09/M08 A3005 RMK A01 T00891083  RH  029%=      5-min Rain = 0
KVA1 231005Z 21007KT 09/M08 A3005 RMK A01 T00891083  RH  029%=      5-min Rain = 0
KVA1 231006Z 21007KT 09/M08 A3005 RMK A01 T00881084  RH  029%=      5-min Rain = 0
KVA1 231007Z 20008KT 09/M08 A3005 RMK A01 T00861084  RH  029%=      5-min Rain = 0
KVA1 231008Z 21008KT 09/M08 A3006 RMK A01 T00861083  RH  029%=      5-min Rain = 0
KVA1 231009Z 21007KT 09/M08 A3006 RMK A01 T00851082  RH  030%=      5-min Rain = 0
KVA1 231010Z 21007KT 08/M08 A3006 RMK A01 T00841082  RH  030%=      5-min Rain = 0
KVA1 231011Z 21007KT 08/M08 A3006 RMK A01 T00841082  RH  030%=      5-min Rain = 0
KVA1 231012Z 21007KT 08/M08 A3006 RMK A01 T00841081  RH  030%=      5-min Rain = 0
KVA1 231013Z 21008KT 08/M08 A3006 RMK A01 T00831082  RH  030%=      5-min Rain = 0
KVA1 231014Z 21007KT 08/M08 A3006 RMK A01 T00821081  RH  031%=      5-min Rain = 0
KVA1 231015Z 21008KT 08/M08 A3006 RMK A01 T00811081  RH  031%=      5-min Rain = 0
KVA1 231016Z 21006KT 08/M08 A3006 RMK A01 T00801081  RH  031%=      5-min Rain = 0
KVA1 231017Z 21006KT 08/M08 A3006 RMK A01 T00801081  RH  031%=      5-min Rain = 0
KVA1 231018Z 21006KT 08/M08 A3006 RMK A01 T00801081  RH  031%=      5-min Rain = 0
KVA1 231019Z 22006KT 08/M08 A3006 RMK A01 T00791081  RH  031%=      5-min Rain = 0
KVA1 231020Z 22006KT 08/M08 A3006 RMK A01 T00791080  RH  031%=      5-min Rain = 0
KVA1 231021Z 22007KT 08/M08 A3006 RMK A01 T00791080  RH  032%=      5-min Rain = 0
KVA1 231022Z 22007KT 08/M08 A3006 RMK A01 T00791079  RH  032%=      5-min Rain = 0
KVA1 231023Z 22007KT 08/M08 A3006 RMK A01 T00791079  RH  032%=      5-min Rain = 0
KVA1 231024Z 22007KT 08/M08 A3006 RMK A01 T00781078  RH  032%=      5-min Rain = 0
KVA1 231025Z 23007KT 08/M08 A3006 RMK A01 T00781077  RH  032%=      5-min Rain = 0
KVA1 231026Z 22008KT 08/M08 A3006 RMK A01 T00781077  RH  032%=      5-min Rain = 0
KVA1 231027Z 23007KT 08/M08 A3006 RMK A01 T00791077  RH  032%=      5-min Rain = 0
KVA1 231028Z 22007KT 08/M08 A3006 RMK A01 T00781077  RH  033%=      5-min Rain = 0
KVA1 231029Z 23007KT 08/M08 A3006 RMK A01 T00781075  RH  033%=      5-min Rain = 0
KVA1 231030Z 23007KT 08/M07 A3006 RMK A01 T00781074  RH  033%=      5-min Rain = 0
KVA1 231031Z 23007KT 08/M07 A3006 RMK A01 T00781073  RH  033%=      5-min Rain = 0
KVA1 231032Z 23007KT 08/M07 A3006 RMK A01 T00781074  RH  033%=      5-min Rain = 0
KVA1 231033Z 23008KT 08/M07 A3006 RMK A01 T00771073  RH  034%=      5-min Rain = 0
KVA1 231034Z 23007KT 08/M07 A3006 RMK A01 T00771073  RH  034%=      5-min Rain = 0
KVA1 231035Z 23008KT 08/M07 A3006 RMK A01 T00781073  RH  034%=      5-min Rain = 0
KVA1 231036Z 23008KT 08/M07 A3006 RMK A01 T00781072  RH  034%=      5-min Rain = 0
KVA1 231037Z 23007KT 08/M07 A3006 RMK A01 T00791072  RH  033%=      5-min Rain = 0
KVA1 231038Z 23007KT 08/M07 A3006 RMK A01 T00801072  RH  033%=      5-min Rain = 0
KVA1 231039Z 23007KT 08/M07 A3006 RMK A01 T00791072  RH  033%=      5-min Rain = 0
KVA1 231040Z 23006KT 08/M07 A3006 RMK A01 T00791072  RH  033%=      5-min Rain = 0
KVA1 231041Z 23006KT 08/M07 A3006 RMK A01 T00791071  RH  034%=      5-min Rain = 0
KVA1 231042Z 23007KT 08/M07 A3006 RMK A01 T00781070  RH  034%=      5-min Rain = 0
KVA1 231043Z 23008KT 08/M07 A3006 RMK A01 T00781069  RH  035%=      5-min Rain = 0
KVA1 231044Z 23008KT 08/M07 A3006 RMK A01 T00781067  RH  035%=      5-min Rain = 0
KVA1 231045Z 22008KT 08/M07 A3006 RMK A01 T00781066  RH  035%=      5-min Rain = 0
KVA1 231046Z 22008KT 08/M07 A3006 RMK A01 T00771066  RH  035%=      5-min Rain = 0
KVA1 231047Z 22009KT 08/M07 A3006 RMK A01 T00771066  RH  036%=      5-min Rain = 0
KVA1 231048Z 22009KT 08/M07 A3006 RMK A01 T00761066  RH  036%=      5-min Rain = 0
KVA1 231049Z 23009KT 08/M07 A3006 RMK A01 T00761066  RH  036%=      5-min Rain = 0
KVA1 231050Z 22009KT 08/M07 A3006 RMK A01 T00771067  RH  035%=      5-min Rain = 0
KVA1 231051Z 22009KT 08/M07 A3006 RMK A01 T00771067  RH  035%=      5-min Rain = 0
KVA1 231052Z 23009KT 08/M07 A3006 RMK A01 T00781067  RH  035%=      5-min Rain = 0
KVA1 231053Z 23009KT 08/M07 A3006 RMK A01 T00781068  RH  035%=      5-min Rain = 0
KVA1 231054Z 23009KT 08/M07 A3006 RMK A01 T00781068  RH  035%=      5-min Rain = 0
KVA1 231055Z 23009KT 08/M07 A3006 RMK A01 T00781068  RH  035%=      5-min Rain = 0
KVA1 231056Z 23009KT 08/M07 A3006 RMK A01 T00781068  RH  035%=      5-min Rain = 0
KVA1 231057Z 23009KT 08/M07 A3007 RMK A01 T00781068  RH  035%=      5-min Rain = 0
KVA1 231058Z 23009KT 08/M07 A3007 RMK A01 T00791068  RH  035%=      5-min Rain = 0
KVA1 231059Z 23009KT 08/M07 A3007 RMK A01 T00791069  RH  034%=      5-min Rain = 0
KVA1 231100Z 23008KT 08/M07 A3007 RMK A01 T00811070  RH  034%=      5-min Rain = 0
KVA1 231101Z 23008KT 08/M07 A3007 RMK A01 T00821070  RH  033%=      5-min Rain = 0
KVA1 231102Z 24007KT 08/M07 A3007 RMK A01 T00831071  RH  033%=      5-min Rain = 0
KVA1 231103Z 23008KT 08/M07 A3007 RMK A01 T00841072  RH  033%=      5-min Rain = 0
KVA1 231104Z 24007KT 08/M07 A3007 RMK A01 T00841073  RH  032%=      5-min Rain = 0
KVA1 231105Z 23008KT 09/M07 A3007 RMK A01 T00851074  RH  032%=      5-min Rain = 0
KVA1 231106Z 24009KT 09/M08 A3007 RMK A01 T00871075  RH  031%=      5-min Rain = 0
KVA1 231107Z 24008KT 09/M08 A3007 RMK A01 T00881075  RH  031%=      5-min Rain = 0
KVA1 231108Z 24008KT 09/M08 A3007 RMK A01 T00891076  RH  030%=      5-min Rain = 0
KVA1 231109Z 24008KT 09/M08 A3007 RMK A01 T00891076  RH  030%=      5-min Rain = 0
KVA1 231110Z 24008KT 09/M08 A3007 RMK A01 T00891076  RH  030%=      5-min Rain = 0
KVA1 231111Z 23007KT 09/M08 A3007 RMK A01 T00891077  RH  030%=      5-min Rain = 0
KVA1 231112Z 23008KT 09/M08 A3007 RMK A01 T00891077  RH  030%=      5-min Rain = 0
KVA1 231113Z 23008KT 09/M08 A3007 RMK A01 T00891077  RH  030%=      5-min Rain = 0
KVA1 231114Z 23008KT 09/M08 A3007 RMK A01 T00891078  RH  030%=      5-min Rain = 0
KVA1 231115Z 23008KT 09/M08 A3007 RMK A01 T00891078  RH  030%=      5-min Rain = 0
KVA1 231116Z 24008KT 09/M08 A3007 RMK A01 T00891079  RH  030%=      5-min Rain = 0
KVA1 231117Z 23007KT 09/M08 A3007 RMK A01 T00891079  RH  030%=      5-min Rain = 0
KVA1 231118Z 23007KT 09/M08 A3007 RMK A01 T00891079  RH  030%=      5-min Rain = 0
KVA1 231119Z 23007KT 09/M08 A3007 RMK A01 T00891080  RH  029%=      5-min Rain = 0
KVA1 231120Z 24007KT 09/M08 A3007 RMK A01 T00891080  RH  029%=      5-min Rain = 0
KVA1 231121Z 23008KT 09/M08 A3007 RMK A01 T00881080  RH  030%=      5-min Rain = 0
KVA1 231122Z 23007KT 09/M08 A3007 RMK A01 T00871080  RH  030%=      5-min Rain = 0
KVA1 231123Z 24007KT 09/M08 A3007 RMK A01 T00871081  RH  030%=      5-min Rain = 0
KVA1 231124Z 23007KT 09/M08 A3007 RMK A01 T00861081  RH  030%=      5-min Rain = 0
KVA1 231125Z 24008KT 09/M08 A3007 RMK A01 T00861081  RH  030%=      5-min Rain = 0
KVA1 231126Z 23007KT 09/M08 A3007 RMK A01 T00861081  RH  030%=      5-min Rain = 0
KVA1 231127Z 24008KT 09/M08 A3007 RMK A01 T00861081  RH  030%=      5-min Rain = 0
KVA1 231128Z 24007KT 09/M08 A3007 RMK A01 T00861081  RH  030%=      5-min Rain = 0
KVA1 231129Z 24008KT 09/M08 A3007 RMK A01 T00851082  RH  030%=      5-min Rain = 0
KVA1 231130Z 24008KT 09/M08 A3008 RMK A01 T00851082  RH  030%=      5-min Rain = 0
KVA1 231131Z 24008KT 09/M08 A3008 RMK A01 T00851082  RH  030%=      5-min Rain = 0
KVA1 231132Z 24009KT 09/M08 A3008 RMK A01 T00851081  RH  030%=      5-min Rain = 0
KVA1 231133Z 23008KT 09/M08 A3008 RMK A01 T00851081  RH  030%=      5-min Rain = 0
KVA1 231134Z 23008KT 09/M08 A3008 RMK A01 T00851082  RH  030%=      5-min Rain = 0
KVA1 231135Z 23008KT 09/M08 A3008 RMK A01 T00851082  RH  030%=      5-min Rain = 0
KVA1 231136Z 22007KT 08/M08 A3008 RMK A01 T00841082  RH  030%=      5-min Rain = 0
KVA1 231137Z 21007KT 08/M08 A3008 RMK A01 T00821082  RH  030%=      5-min Rain = 0
KVA1 231138Z 20008KT 08/M08 A3008 RMK A01 T00791082  RH  031%=      5-min Rain = 0
KVA1 231139Z 21009KT 08/M08 A3008 RMK A01 T00771081  RH  032%=      5-min Rain = 0
KVA1 231140Z 21009KT 08/M08 A3008 RMK A01 T00761078  RH  033%=      5-min Rain = 0
KVA1 231141Z 21009KT 08/M08 A3008 RMK A01 T00761075  RH  033%=      5-min Rain = 0
KVA1 231142Z 22008KT 08/M07 A3008 RMK A01 T00761073  RH  034%=      5-min Rain = 0
KVA1 231143Z 22009KT 08/M07 A3008 RMK A01 T00761072  RH  034%=      5-min Rain = 0
KVA1 231144Z 22009KT 08/M07 A3008 RMK A01 T00751071  RH  035%=      5-min Rain = 0
KVA1 231145Z 22008KT 08/M07 A3008 RMK A01 T00761070  RH  035%=      5-min Rain = 0
KVA1 231146Z 22008KT 08/M07 A3008 RMK A01 T00751071  RH  035%=      5-min Rain = 0
KVA1 231147Z 22009KT 08/M07 A3008 RMK A01 T00751071  RH  035%=      5-min Rain = 0
KVA1 231148Z 22009KT 08/M07 A3008 RMK A01 T00751071  RH  035%=      5-min Rain = 0
KVA1 231149Z 22009KT 08/M07 A3008 RMK A01 T00761071  RH  034%=      5-min Rain = 0
KVA1 231150Z 23008KT 08/M07 A3008 RMK A01 T00761071  RH  035%=      5-min Rain = 0
KVA1 231151Z 23008KT 08/M07 A3008 RMK A01 T00751071  RH  035%=      5-min Rain = 0
KVA1 231152Z 23008KT 08/M07 A3008 RMK A01 T00751072  RH  035%=      5-min Rain = 0
KVA1 231153Z 23008KT 07/M07 A3008 RMK A01 T00741072  RH  035%=      5-min Rain = 0
KVA1 231154Z 23008KT 07/M07 A3008 RMK A01 T00741072  RH  035%=      5-min Rain = 0
KVA1 231155Z 23008KT 07/M07 A3008 RMK A01 T00731073  RH  035%=      5-min Rain = 0
KVA1 231156Z 24008KT 07/M07 A3008 RMK A01 T00731073  RH  035%=      5-min Rain = 0
KVA1 231157Z 24007KT 07/M07 A3009 RMK A01 T00721074  RH  035%=      5-min Rain = 0
KVA1 231158Z 24008KT 07/M08 A3009 RMK A01 T00711075  RH  035%=      5-min Rain = 0
KVA1 231159Z 23007KT 07/M08 A3009 RMK A01 T00691075  RH  035%=      5-min Rain = 0
KVA1 231200Z 23008KT 07/M08 A3009 RMK A01 T00681075  RH  035%=      5-min Rain = 0
KVA1 231201Z 22007KT 07/M08 A3008 RMK A01 T00651075  RH  036%=      5-min Rain = 0
KVA1 231202Z 23007KT 06/M08 A3008 RMK A01 T00621075  RH  037%=      5-min Rain = 0
KVA1 231203Z 23007KT 06/M08 A3008 RMK A01 T00611075  RH  037%=      5-min Rain = 0
KVA1 231204Z 22007KT 06/M08 A3008 RMK A01 T00601075  RH  037%=      5-min Rain = 0
KVA1 231205Z 22007KT 06/M07 A3009 RMK A01 T00601074  RH  038%=      5-min Rain = 0
KVA1 231206Z 23008KT 06/M07 A3009 RMK A01 T00601074  RH  038%=      5-min Rain = 0
KVA1 231207Z 24008KT 06/M07 A3009 RMK A01 T00611074  RH  037%=      5-min Rain = 0
KVA1 231208Z 23007KT 06/M08 A3009 RMK A01 T00611076  RH  037%=      5-min Rain = 0
KVA1 231209Z 23007KT 06/M08 A3009 RMK A01 T00611076  RH  037%=      5-min Rain = 0
KVA1 231210Z 24008KT 06/M08 A3009 RMK A01 T00601077  RH  037%=      5-min Rain = 0
KVA1 231211Z 24008KT 06/M08 A3009 RMK A01 T00601078  RH  037%=      5-min Rain = 0
KVA1 231212Z 24008KT 06/M08 A3009 RMK A01 T00601078  RH  037%=      5-min Rain = 0
KVA1 231213Z 24007KT 06/M08 A3009 RMK A01 T00591079  RH  036%=      5-min Rain = 0
KVA1 231214Z 24008KT 06/M08 A3009 RMK A01 T00591079  RH  036%=      5-min Rain = 0
KVA1 231215Z 25008KT 06/M08 A3009 RMK A01 T00591079  RH  036%=      5-min Rain = 0
KVA1 231216Z 25009KT 06/M08 A3009 RMK A01 T00591080  RH  036%=      5-min Rain = 0
KVA1 231217Z 25009KT 06/M08 A3009 RMK A01 T00591079  RH  036%=      5-min Rain = 0
KVA1 231218Z 25008KT 06/M08 A3009 RMK A01 T00601079  RH  036%=      5-min Rain = 0
KVA1 231219Z 25008KT 06/M08 A3009 RMK A01 T00611079  RH  036%=      5-min Rain = 0
KVA1 231220Z 25008KT 06/M08 A3009 RMK A01 T00631079  RH  035%=      5-min Rain = 0
KVA1 231221Z 24008KT 07/M08 A3009 RMK A01 T00651079  RH  035%=      5-min Rain = 0
KVA1 231222Z 25008KT 07/M08 A3009 RMK A01 T00671079  RH  035%=      5-min Rain = 0
KVA1 231223Z 24008KT 07/M08 A3009 RMK A01 T00691078  RH  034%=      5-min Rain = 0
KVA1 231224Z 24009KT 07/M08 A3009 RMK A01 T00721078  RH  033%=      5-min Rain = 0
KVA1 231225Z 24009KT 08/M08 A3009 RMK A01 T00751078  RH  033%=      5-min Rain = 0
KVA1 231226Z 24008KT 08/M08 A3009 RMK A01 T00781078  RH  032%=      5-min Rain = 0
KVA1 231227Z 24009KT 08/M08 A3009 RMK A01 T00781079  RH  032%=      5-min Rain = 0
KVA1 231228Z 25009KT 08/M08 A3009 RMK A01 T00781079  RH  032%=      5-min Rain = 0
KVA1 231229Z 25009KT 08/M08 A3009 RMK A01 T00781080  RH  032%=      5-min Rain = 0
KVA1 231230Z 24009KT 08/M08 A3009 RMK A01 T00791079  RH  032%=      5-min Rain = 0
KVA1 231231Z 24009KT 08/M08 A3009 RMK A01 T00781080  RH  032%=      5-min Rain = 0
KVA1 231232Z 24009KT 08/M08 A3009 RMK A01 T00771080  RH  032%=      5-min Rain = 0
KVA1 231233Z 24009KT 08/M08 A3009 RMK A01 T00761080  RH  032%=      5-min Rain = 0
KVA1 231234Z 25009KT 08/M08 A3009 RMK A01 T00761080  RH  032%=      5-min Rain = 0
KVA1 231235Z 24009KT 08/M08 A3009 RMK A01 T00761079  RH  032%=      5-min Rain = 0
KVA1 231236Z 24009KT 08/M08 A3009 RMK A01 T00781079  RH  032%=      5-min Rain = 0
KVA1 231237Z 24009KT 08/M08 A3009 RMK A01 T00781079  RH  032%=      5-min Rain = 0
KVA1 231238Z 24009KT 08/M08 A3009 RMK A01 T00781079  RH  032%=      5-min Rain = 0
KVA1 231239Z 25009KT 08/M08 A3009 RMK A01 T00781079  RH  032%=      5-min Rain = 0
KVA1 231240Z 24008KT 08/M08 A3009 RMK A01 T00781079  RH  032%=      5-min Rain = 0
KVA1 231241Z 24008KT 08/M08 A301 RMK A01 T00771079  RH  032%=      5-min Rain = 0
KVA1 231242Z 24008KT 08/M08 A301 RMK A01 T00771079  RH  032%=      5-min Rain = 0
KVA1 231243Z 24008KT 08/M08 A301 RMK A01 T00761079  RH  032%=      5-min Rain = 0
KVA1 231244Z 24008KT 08/M08 A301 RMK A01 T00751079  RH  033%=      5-min Rain = 0
KVA1 231245Z 24008KT 08/M08 A301 RMK A01 T00751079  RH  033%=      5-min Rain = 0
KVA1 231246Z 24008KT 07/M08 A301 RMK A01 T00741079  RH  033%=      5-min Rain = 0
KVA1 231247Z 24008KT 07/M08 A301 RMK A01 T00741079  RH  033%=      5-min Rain = 0
KVA1 231248Z 24008KT 07/M08 A301 RMK A01 T00741078  RH  033%=      5-min Rain = 0
KVA1 231249Z 24008KT 07/M08 A301 RMK A01 T00741078  RH  033%=      5-min Rain = 0
KVA1 231250Z 24008KT 07/M08 A301 RMK A01 T00731079  RH  033%=      5-min Rain = 0
KVA1 231251Z 24007KT 07/M08 A301 RMK A01 T00731078  RH  033%=      5-min Rain = 0
KVA1 231252Z 23007KT 07/M08 A301 RMK A01 T00731078  RH  033%=      5-min Rain = 0
KVA1 231253Z 23006KT 07/M08 A301 RMK A01 T00701080  RH  034%=      5-min Rain = 0
KVA1 231254Z 22006KT 07/M08 A301 RMK A01 T00661081  RH  034%=      5-min Rain = 0
KVA1 231255Z 21007KT 06/M08 A301 RMK A01 T00601082  RH  035%=      5-min Rain = 0
KVA1 231256Z 21008KT 06/M08 A301 RMK A01 T00571081  RH  036%=      5-min Rain = 0
KVA1 231257Z 21008KT 06/M08 A301 RMK A01 T00561080  RH  037%=      5-min Rain = 0
KVA1 231258Z 22008KT 06/M08 A301 RMK A01 T00561079  RH  037%=      5-min Rain = 0
KVA1 231259Z 23008KT 06/M08 A301 RMK A01 T00561078  RH  037%=      5-min Rain = 0
KVA1 231300Z 23008KT 06/M08 A301 RMK A01 T00581077  RH  037%=      5-min Rain = 0
KVA1 231301Z 22007KT 06/M08 A301 RMK A01 T00591078  RH  037%=      5-min Rain = 0
KVA1 231302Z 22007KT 06/M08 A301 RMK A01 T00591078  RH  037%=      5-min Rain = 0
KVA1 231303Z 22008KT 06/M08 A301 RMK A01 T00591078  RH  037%=      5-min Rain = 0
KVA1 231304Z 22008KT 06/M08 A301 RMK A01 T00591078  RH  037%=      5-min Rain = 0
KVA1 231305Z 22009KT 06/M08 A301 RMK A01 T00601077  RH  037%=      5-min Rain = 0
KVA1 231306Z 22009KT 06/M08 A301 RMK A01 T00621077  RH  036%=      5-min Rain = 0
KVA1 231307Z 22009KT 06/M08 A301 RMK A01 T00641076  RH  036%=      5-min Rain = 0
KVA1 231308Z 22008KT 07/M08 A301 RMK A01 T00661077  RH  035%=      5-min Rain = 0
KVA1 231309Z 22008KT 07/M08 A3011 RMK A01 T00681077  RH  035%=      5-min Rain = 0
KVA1 231310Z 22008KT 07/M08 A3011 RMK A01 T00701077  RH  034%=      5-min Rain = 0
KVA1 231311Z 21008KT 07/M08 A3011 RMK A01 T00711077  RH  034%=      5-min Rain = 0
KVA1 231312Z 22008KT 07/M08 A3011 RMK A01 T00721077  RH  034%=      5-min Rain = 0
KVA1 231313Z 22008KT 07/M08 A3011 RMK A01 T00721077  RH  034%=      5-min Rain = 0
KVA1 231314Z 22008KT 07/M08 A3011 RMK A01 T00721077  RH  034%=      5-min Rain = 0
KVA1 231315Z 22008KT 07/M08 A3011 RMK A01 T00721077  RH  034%=      5-min Rain = 0
KVA1 231316Z 22009KT 07/M08 A3011 RMK A01 T00731077  RH  034%=      5-min Rain = 0
KVA1 231317Z 22008KT 07/M08 A3011 RMK A01 T00731077  RH  034%=      5-min Rain = 0
KVA1 231318Z 22009KT 07/M08 A3011 RMK A01 T00731077  RH  033%=      5-min Rain = 0
KVA1 231319Z 22008KT 07/M08 A3011 RMK A01 T00741077  RH  033%=      5-min Rain = 0
KVA1 231320Z 22008KT 07/M08 A3011 RMK A01 T00741077  RH  033%=      5-min Rain = 0
KVA1 231321Z 22008KT 08/M08 A3011 RMK A01 T00751076  RH  033%=      5-min Rain = 0
KVA1 231322Z 21009KT 08/M08 A3011 RMK A01 T00761075  RH  034%=      5-min Rain = 0
KVA1 231323Z 21008KT 08/M07 A3011 RMK A01 T00761074  RH  034%=      5-min Rain = 0
KVA1 231324Z 22009KT 08/M07 A3011 RMK A01 T00751073  RH  034%=      5-min Rain = 0
KVA1 231325Z 21008KT 08/M07 A3011 RMK A01 T00751072  RH  034%=      5-min Rain = 0
KVA1 231326Z 21008KT 08/M07 A3011 RMK A01 T00751072  RH  034%=      5-min Rain = 0
KVA1 231327Z 21009KT 08/M07 A3011 RMK A01 T00751071  RH  035%=      5-min Rain = 0
KVA1 231328Z 21008KT 08/M07 A3011 RMK A01 T00751070  RH  035%=      5-min Rain = 0
KVA1 231329Z 21008KT 08/M07 A3011 RMK A01 T00751069  RH  035%=      5-min Rain = 0
KVA1 231330Z 22008KT 08/M07 A3011 RMK A01 T00761068  RH  035%=      5-min Rain = 0
KVA1 231331Z 22008KT 08/M07 A3011 RMK A01 T00751068  RH  035%=      5-min Rain = 0
KVA1 231332Z 22008KT 08/M07 A3011 RMK A01 T00761067  RH  035%=      5-min Rain = 0
KVA1 231333Z 22008KT 08/M07 A3011 RMK A01 T00781067  RH  035%=      5-min Rain = 0
KVA1 231334Z 22007KT 08/M07 A3011 RMK A01 T00791067  RH  035%=      5-min Rain = 0
KVA1 231335Z 22007KT 08/M07 A3011 RMK A01 T00801067  RH  035%=      5-min Rain = 0
KVA1 231336Z 22007KT 08/M07 A3011 RMK A01 T00811068  RH  034%=      5-min Rain = 0
KVA1 231337Z 23007KT 08/M07 A3012 RMK A01 T00831068  RH  034%=      5-min Rain = 0
KVA1 231338Z 22008KT 08/M07 A3012 RMK A01 T00841069  RH  033%=      5-min Rain = 0
KVA1 231339Z 23007KT 09/M07 A3012 RMK A01 T00861070  RH  033%=      5-min Rain = 0
KVA1 231340Z 22007KT 09/M07 A3012 RMK A01 T00871071  RH  032%=      5-min Rain = 0
KVA1 231341Z 22007KT 09/M07 A3012 RMK A01 T00891071  RH  032%=      5-min Rain = 0
KVA1 231342Z 23007KT 09/M07 A3012 RMK A01 T00901071  RH  031%=      5-min Rain = 0
KVA1 231343Z 22006KT 09/M07 A3012 RMK A01 T00911071  RH  031%=      5-min Rain = 0
KVA1 231344Z 22007KT 09/M07 A3012 RMK A01 T00931071  RH  031%=      5-min Rain = 0
KVA1 231345Z 22006KT 09/M07 A3012 RMK A01 T00941072  RH  030%=      5-min Rain = 0
KVA1 231346Z 22007KT 10/M07 A3012 RMK A01 T00951072  RH  030%=      5-min Rain = 0
KVA1 231347Z 22007KT 10/M07 A3012 RMK A01 T00971072  RH  030%=      5-min Rain = 0
KVA1 231348Z 22006KT 10/M07 A3012 RMK A01 T00981072  RH  029%=      5-min Rain = 0
KVA1 231349Z 22006KT 10/M07 A3012 RMK A01 T00991072  RH  029%=      5-min Rain = 0
KVA1 231350Z 23006KT 10/M07 A3012 RMK A01 T01001072  RH  029%=      5-min Rain = 0
KVA1 231351Z 22007KT 10/M07 A3012 RMK A01 T01001071  RH  029%=      5-min Rain = 0
KVA1 231352Z 23007KT 10/M07 A3012 RMK A01 T01011071  RH  029%=      5-min Rain = 0
KVA1 231353Z 22007KT 10/M07 A3012 RMK A01 T01021072  RH  029%=      5-min Rain = 0
KVA1 231354Z 23007KT 10/M07 A3012 RMK A01 T01031071  RH  029%=      5-min Rain = 0
KVA1 231355Z 22006KT 10/M07 A3013 RMK A01 T01041071  RH  028%=      5-min Rain = 0
KVA1 231356Z 23007KT 11/M07 A3013 RMK A01 T01051071  RH  028%=      5-min Rain = 0
KVA1 231357Z 22007KT 11/M07 A3013 RMK A01 T01061071  RH  028%=      5-min Rain = 0
KVA1 231358Z 23007KT 11/M07 A3013 RMK A01 T01061071  RH  028%=      5-min Rain = 0
KVA1 231359Z 23007KT 11/M07 A3013 RMK A01 T01061071  RH  028%=      5-min Rain = 0
KVA1 231400Z 23006KT 11/M07 A3013 RMK A01 T01071071  RH  028%=      5-min Rain = 0
KVA1 231401Z 22007KT 11/M07 A3013 RMK A01 T01081071  RH  028%=      5-min Rain = 0
KVA1 231402Z 22008KT 11/M07 A3013 RMK A01 T01091071  RH  028%=      5-min Rain = 0
KVA1 231403Z 22007KT 11/M07 A3013 RMK A01 T01101071  RH  028%=      5-min Rain = 0
KVA1 231404Z 22008KT 11/M07 A3013 RMK A01 T01101070  RH  028%=      5-min Rain = 0
KVA1 231405Z 22007KT 11/M07 A3013 RMK A01 T01111071  RH  027%=      5-min Rain = 0
KVA1 231406Z 22008KT 11/M07 A3013 RMK A01 T01111070  RH  027%=      5-min Rain = 0
KVA1 231407Z 22007KT 11/M07 A3013 RMK A01 T01121071  RH  027%=      5-min Rain = 0
KVA1 231408Z 22007KT 11/M07 A3013 RMK A01 T01131070  RH  027%=      5-min Rain = 0
KVA1 231409Z 22008KT 11/M07 A3013 RMK A01 T01141070  RH  027%=      5-min Rain = 0
KVA1 231410Z 22007KT 12/M07 A3013 RMK A01 T01151070  RH  027%=      5-min Rain = 0
KVA1 231411Z 23007KT 12/M07 A3013 RMK A01 T01151069  RH  027%=      5-min Rain = 0
KVA1 231412Z 23006KT 12/M07 A3013 RMK A01 T01161068  RH  027%=      5-min Rain = 0
KVA1 231413Z 23007KT 12/M07 A3013 RMK A01 T01161068  RH  027%=      5-min Rain = 0
KVA1 231414Z 22007KT 12/M07 A3013 RMK A01 T01171068  RH  027%=      5-min Rain = 0
KVA1 231415Z 22007KT 12/M07 A3013 RMK A01 T01171067  RH  027%=      5-min Rain = 0
KVA1 231416Z 23006KT 12/M07 A3013 RMK A01 T01171067  RH  027%=      5-min Rain = 0
KVA1 231417Z 23007KT 12/M07 A3013 RMK A01 T01181066  RH  027%=      5-min Rain = 0
KVA1 231418Z 23007KT 12/M07 A3013 RMK A01 T01201066  RH  027%=      5-min Rain = 0
KVA1 231419Z 23007KT 12/M07 A3013 RMK A01 T01211067  RH  026%=      5-min Rain = 0
KVA1 231420Z 23007KT 12/M07 A3013 RMK A01 T01221066  RH  026%=      5-min Rain = 0
KVA1 231421Z 23006KT 12/M07 A3013 RMK A01 T01241066  RH  026%=      5-min Rain = 0
KVA1 231422Z 22007KT 12/M07 A3013 RMK A01 T01241066  RH  026%=      5-min Rain = 0
KVA1 231423Z 22007KT 12/M07 A3014 RMK A01 T01241066  RH  026%=      5-min Rain = 0
KVA1 231424Z 23006KT 12/M06 A3014 RMK A01 T01241064  RH  026%=      5-min Rain = 0
KVA1 231425Z 22007KT 13/M07 A3014 RMK A01 T01251065  RH  026%=      5-min Rain = 0
KVA1 231426Z 23006KT 13/M06 A3014 RMK A01 T01251061  RH  027%=      5-min Rain = 0
KVA1 231427Z 22006KT 13/M06 A3014 RMK A01 T01251060  RH  027%=      5-min Rain = 0
KVA1 231428Z 22007KT 13/M06 A3014 RMK A01 T01251059  RH  027%=      5-min Rain = 0
KVA1 231429Z 22007KT 13/M06 A3014 RMK A01 T01251060  RH  027%=      5-min Rain = 0
KVA1 231430Z 22007KT 13/M06 A3014 RMK A01 T01261059  RH  027%=      5-min Rain = 0
KVA1 231431Z 23006KT 13/M06 A3014 RMK A01 T01271059  RH  027%=      5-min Rain = 0
KVA1 231432Z 23007KT 13/M06 A3014 RMK A01 T01281060  RH  026%=      5-min Rain = 0
KVA1 231433Z 22006KT 13/M06 A3014 RMK A01 T01281056  RH  027%=      5-min Rain = 0
KVA1 231434Z 22007KT 13/M05 A3014 RMK A01 T01281051  RH  028%=      5-min Rain = 0
KVA1 231435Z 21007KT 13/M05 A3014 RMK A01 T01261051  RH  029%=      5-min Rain = 0
KVA1 231436Z 22007KT 12/M05 A3014 RMK A01 T01231051  RH  029%=      5-min Rain = 0
KVA1 231437Z 23006KT 12/M05 A3014 RMK A01 T01231051  RH  029%=      5-min Rain = 0
KVA1 231438Z 23006KT 13/M05 A3014 RMK A01 T01251051  RH  029%=      5-min Rain = 0
KVA1 231439Z 23006KT 13/M05 A3014 RMK A01 T01271052  RH  028%=      5-min Rain = 0
KVA1 231440Z 23006KT 13/M05 A3014 RMK A01 T01291051  RH  028%=      5-min Rain = 0
KVA1 231441Z 23006KT 13/M05 A3014 RMK A01 T01301051  RH  028%=      5-min Rain = 0
KVA1 231442Z 23006KT 13/M05 A3014 RMK A01 T01311051  RH  028%=      5-min Rain = 0
KVA1 231443Z 23006KT 13/M05 A3014 RMK A01 T01331050  RH  028%=      5-min Rain = 0
KVA1 231444Z 22006KT 13/M05 A3014 RMK A01 T01341050  RH  028%=      5-min Rain = 0
KVA1 231445Z 22006KT 14/M05 A3014 RMK A01 T01351051  RH  027%=      5-min Rain = 0
KVA1 231446Z 21007KT 14/M05 A3014 RMK A01 T01351050  RH  027%=      5-min Rain = 0
KVA1 231447Z 22006KT 13/M05 A3014 RMK A01 T01341047  RH  028%=      5-min Rain = 0
KVA1 231448Z 22006KT 13/M05 A3014 RMK A01 T01341046  RH  028%=      5-min Rain = 0
KVA1 231449Z 22007KT 13/M05 A3014 RMK A01 T01341046  RH  028%=      5-min Rain = 0
KVA1 231450Z 22006KT 13/M05 A3014 RMK A01 T01341046  RH  028%=      5-min Rain = 0
KVA1 231451Z 22007KT 14/M05 A3014 RMK A01 T01371045  RH  028%=      5-min Rain = 0
KVA1 231452Z 22007KT 14/M05 A3014 RMK A01 T01371047  RH  028%=      5-min Rain = 0
KVA1 231453Z 22006KT 14/M05 A3014 RMK A01 T01361048  RH  028%=      5-min Rain = 0
KVA1 231454Z 22006KT 14/M05 A3014 RMK A01 T01381048  RH  027%=      5-min Rain = 0
KVA1 231455Z 22007KT 14/M05 A3014 RMK A01 T01401048  RH  027%=      5-min Rain = 0
KVA1 231456Z 22007KT 14/M05 A3014 RMK A01 T01401049  RH  026%=      5-min Rain = 0
KVA1 231457Z 23006KT 14/M05 A3014 RMK A01 T01431049  RH  026%=      5-min Rain = 0
KVA1 231458Z 23007KT 15/M05 A3014 RMK A01 T01451052  RH  025%=      5-min Rain = 0
KVA1 231459Z 23005KT 15/M05 A3014 RMK A01 T01451053  RH  025%=      5-min Rain = 0
KVA1 231500Z 22006KT 15/M05 A3014 RMK A01 T01471054  RH  025%=      5-min Rain = 0
KVA1 231501Z 23008KT 15/M06 A3014 RMK A01 T01481056  RH  024%=      5-min Rain = 0
KVA1 231502Z 24008KT 15/M06 A3014 RMK A01 T01491064  RH  022%=      5-min Rain = 0
KVA1 231503Z 25008KT 15/M07 A3014 RMK A01 T01521067  RH  022%=      5-min Rain = 0
KVA1 231504Z 25007KT 15/M07 A3014 RMK A01 T01531068  RH  021%=      5-min Rain = 0
KVA1 231505Z 24008KT 15/M07 A3014 RMK A01 T01541068  RH  021%=      5-min Rain = 0
KVA1 231506Z 24009KT 15/M07 A3014 RMK A01 T01541069  RH  021%=      5-min Rain = 0
KVA1 231507Z 24008KT 15/M07 A3015 RMK A01 T01531070  RH  021%=      5-min Rain = 0
KVA1 231508Z 25008KT 15/M07 A3015 RMK A01 T01531070  RH  021%=      5-min Rain = 0
KVA1 231509Z 25007KT 15/M07 A3015 RMK A01 T01531070  RH  021%=      5-min Rain = 0
KVA1 231510Z 25009KT 15/M07 A3015 RMK A01 T01541071  RH  021%=      5-min Rain = 0
KVA1 231511Z 25008KT 15/M07 A3015 RMK A01 T01541071  RH  021%=      5-min Rain = 0
KVA1 231512Z 25010KT 16/M07 A3015 RMK A01 T01551070  RH  021%=      5-min Rain = 0
KVA1 231513Z 25009KT 16/M07 A3015 RMK A01 T01561071  RH  020%=      5-min Rain = 0
KVA1 231514Z 26008KT 16/M07 A3015 RMK A01 T01561072  RH  020%=      5-min Rain = 0
KVA1 231515Z 25008KT 16/M07 A3015 RMK A01 T01561071  RH  020%=      5-min Rain = 0
KVA1 231516Z 25009KT 16/M07 A3015 RMK A01 T01571071  RH  020%=      5-min Rain = 0
KVA1 231517Z 24008KT 16/M07 A3015 RMK A01 T01571072  RH  020%=      5-min Rain = 0
KVA1 231518Z 24009KT 16/M07 A3015 RMK A01 T01571072  RH  020%=      5-min Rain = 0
KVA1 231519Z 26008KT 16/M07 A3015 RMK A01 T01581071  RH  020%=      5-min Rain = 0
KVA1 231520Z 25009KT 16/M07 A3015 RMK A01 T01601072  RH  020%=      5-min Rain = 0
KVA1 231521Z 25009KT 16/M07 A3015 RMK A01 T01601074  RH  019%=      5-min Rain = 0
KVA1 231522Z 25009KT 16/M08 A3015 RMK A01 T01591076  RH  019%=      5-min Rain = 0
KVA1 231523Z 24009KT 16/M08 A3015 RMK A01 T01591075  RH  019%=      5-min Rain = 0
KVA1 231524Z 26007KT 16/M08 A3015 RMK A01 T01591076  RH  019%=      5-min Rain = 0
KVA1 231525Z 25008KT 16/M08 A3015 RMK A01 T01601075  RH  019%=      5-min Rain = 0
KVA1 231526Z 22007KT 16/M07 A3015 RMK A01 T01611069  RH  020%=      5-min Rain = 0
KVA1 231527Z 22008KT 16/M06 A3015 RMK A01 T01611064  RH  021%=      5-min Rain = 0
KVA1 231528Z 21007KT 16/M06 A3015 RMK A01 T01601063  RH  021%=      5-min Rain = 0
KVA1 231529Z 21007KT 16/M06 A3015 RMK A01 T01611064  RH  021%=      5-min Rain = 0
KVA1 231530Z 21008KT 16/M07 A3015 RMK A01 T01621065  RH  020%=      5-min Rain = 0
KVA1 231531Z 21007KT 16/M07 A3015 RMK A01 T01611066  RH  020%=      5-min Rain = 0
KVA1 231532Z 22009KT 16/M07 A3015 RMK A01 T01611065  RH  021%=      5-min Rain = 0
KVA1 231533Z 22006KT 16/M07 A3015 RMK A01 T01601067  RH  020%=      5-min Rain = 0
KVA1 231534Z 21005KT 16/M07 A3015 RMK A01 T01591068  RH  020%=      5-min Rain = 0
KVA1 231535Z 19005KT 16/M07 A3015 RMK A01 T01581065  RH  021%=      5-min Rain = 0
KVA1 231536Z 19006KT 16/M07 A3015 RMK A01 T01601065  RH  021%=      5-min Rain = 0
KVA1 231537Z 19007KT 16/M06 A3015 RMK A01 T01601062  RH  021%=      5-min Rain = 0
KVA1 231538Z 19008KT 16/M06 A3015 RMK A01 T01601062  RH  021%=      5-min Rain = 0
KVA1 231539Z 21008KT 16/M06 A3015 RMK A01 T01611062  RH  021%=      5-min Rain = 0
KVA1 231540Z 23005KT 16/M07 A3015 RMK A01 T01631066  RH  020%=      5-min Rain = 0
KVA1 231541Z 21006KT 16/M07 A3015 RMK A01 T01631068  RH  020%=      5-min Rain = 0
KVA1 231542Z 22007KT 16/M07 A3015 RMK A01 T01641069  RH  020%=      5-min Rain = 0
KVA1 231543Z 21009KT 17/M07 A3015 RMK A01 T01651071  RH  019%=      5-min Rain = 0
KVA1 231544Z 22009KT 16/M07 A3015 RMK A01 T01641073  RH  019%=      5-min Rain = 0
KVA1 231545Z 22008KT 16/M07 A3015 RMK A01 T01641073  RH  019%=      5-min Rain = 0
KVA1 231546Z 21008KT 16/M07 A3015 RMK A01 T01641074  RH  019%=      5-min Rain = 0
KVA1 231547Z 22008KT 16/M07 A3015 RMK A01 T01641073  RH  019%=      5-min Rain = 0
KVA1 231548Z 24007KT 16/M07 A3015 RMK A01 T01631074  RH  019%=      5-min Rain = 0
KVA1 231549Z 23006KT 17/M07 A3015 RMK A01 T01651073  RH  019%=      5-min Rain = 0
KVA1 231550Z 21005KT 17/M07 A3015 RMK A01 T01651071  RH  019%=      5-min Rain = 0
KVA1 231551Z 21006KT 17/M07 A3015 RMK A01 T01651072  RH  019%=      5-min Rain = 0
KVA1 231552Z 22006KT 17/M07 A3015 RMK A01 T01671071  RH  019%=      5-min Rain = 0
KVA1 231553Z 21007KT 17/M07 A3015 RMK A01 T01681071  RH  019%=      5-min Rain = 0
KVA1 231554Z 21007KT 17/M07 A3015 RMK A01 T01681071  RH  019%=      5-min Rain = 0
KVA1 231555Z 22005KT 17/M07 A3014 RMK A01 T01681071  RH  019%=      5-min Rain = 0
KVA1 231556Z 22003KT 17/M07 A3014 RMK A01 T01681072  RH  019%=      5-min Rain = 0
KVA1 231557Z 20004KT 17/M07 A3014 RMK A01 T01681070  RH  019%=      5-min Rain = 0
KVA1 231558Z 21004G9KT 17/M07 A3014 RMK A01 T01691069  RH  019%=      5-min Rain = 0
KVA1 231559Z 21007KT 17/M07 A3014 RMK A01 T01691073  RH  018%=      5-min Rain = 0
KVA1 231600Z 20006KT 17/M08 A3014 RMK A01 T01721077  RH  018%=      5-min Rain = 0
KVA1 231601Z 21006KT 17/M08 A3014 RMK A01 T01721078  RH  017%=      5-min Rain = 0
KVA1 231602Z 21005KT 17/M08 A3014 RMK A01 T01721079  RH  017%=      5-min Rain = 0
KVA1 231603Z 22005KT 17/M08 A3014 RMK A01 T01721078  RH  017%=      5-min Rain = 0
KVA1 231604Z 25006KT 17/M08 A3014 RMK A01 T01731075  RH  018%=      5-min Rain = 0
KVA1 231605Z 27004KT 18/M07 A3014 RMK A01 T01761074  RH  017%=      5-min Rain = 0
KVA1 231606Z 26005KT 18/M08 A3014 RMK A01 T01761075  RH  017%=      5-min Rain = 0
KVA1 231607Z 24007KT 18/M08 A3014 RMK A01 T01761077  RH  017%=      5-min Rain = 0
KVA1 231608Z 23007KT 18/M08 A3014 RMK A01 T01761077  RH  017%=      5-min Rain = 0
KVA1 231609Z 25006KT 18/M08 A3014 RMK A01 T01771076  RH  017%=      5-min Rain = 0
KVA1 231610Z 25005KT 18/M08 A3014 RMK A01 T01771076  RH  017%=      5-min Rain = 0
KVA1 231611Z 26005KT 18/M07 A3014 RMK A01 T01791074  RH  017%=      5-min Rain = 0
KVA1 231612Z 24006KT 18/M08 A3014 RMK A01 T01801076  RH  017%=      5-min Rain = 0
KVA1 231613Z 24007KT 18/M08 A3014 RMK A01 T01791084  RH  016%=      5-min Rain = 0
KVA1 231614Z 23006KT 18/M09 A3014 RMK A01 T01781086  RH  016%=      5-min Rain = 0
KVA1 231615Z 23003KT 18/M09 A3014 RMK A01 T01771086  RH  016%=      5-min Rain = 0
KVA1 231616Z 21006KT 18/M09 A3014 RMK A01 T01751086  RH  016%=      5-min Rain = 0
KVA1 231617Z 22007KT 18/M08 A3014 RMK A01 T01761083  RH  016%=      5-min Rain = 0
KVA1 231618Z 24009KT 18/M08 A3014 RMK A01 T01781084  RH  016%=      5-min Rain = 0
KVA1 231619Z 25007KT 18/M09 A3014 RMK A01 T01781085  RH  016%=      5-min Rain = 0
KVA1 231620Z 24007KT 18/M08 A3014 RMK A01 T01791084  RH  016%=      5-min Rain = 0
KVA1 231621Z 24007KT 18/M09 A3014 RMK A01 T01781089  RH  015%=      5-min Rain = 0
KVA1 231622Z 24005KT 18/M09 A3014 RMK A01 T01761090  RH  015%=      5-min Rain = 0
KVA1 231623Z 23004KT 18/M09 A3014 RMK A01 T01781088  RH  015%=      5-min Rain = 0
KVA1 231624Z 24006KT 18/M08 A3014 RMK A01 T01811083  RH  016%=      5-min Rain = 0
KVA1 231625Z 24008KT 19/M08 A3014 RMK A01 T01851080  RH  016%=      5-min Rain = 0
KVA1 231626Z 22008KT 18/M09 A3014 RMK A01 T01831085  RH  015%=      5-min Rain = 0
KVA1 231627Z 25007KT 18/M09 A3014 RMK A01 T01791086  RH  016%=      5-min Rain = 0
KVA1 231628Z 27007KT 18/M08 A3014 RMK A01 T01791082  RH  016%=      5-min Rain = 0
KVA1 231629Z 27005KT 18/M08 A3014 RMK A01 T01801083  RH  016%=      5-min Rain = 0
KVA1 231630Z 23004KT 18/M08 A3014 RMK A01 T01801084  RH  016%=      5-min Rain = 0
KVA1 231631Z 22007KT 18/M09 A3014 RMK A01 T01811085  RH  016%=      5-min Rain = 0
KVA1 231632Z 21007KT 18/M09 A3014 RMK A01 T01831087  RH  015%=      5-min Rain = 0
KVA1 231633Z 22006KT 18/M09 A3014 RMK A01 T01821088  RH  015%=      5-min Rain = 0
KVA1 231634Z 22008KT 18/M09 A3014 RMK A01 T01831086  RH  015%=      5-min Rain = 0
KVA1 231635Z 23009KT 19/M08 A3013 RMK A01 T01851083  RH  015%=      5-min Rain = 0
KVA1 231636Z 23007KT 19/M08 A3014 RMK A01 T01871082  RH  015%=      5-min Rain = 0
KVA1 231637Z 22005KT 19/M09 A3014 RMK A01 T01861086  RH  015%=      5-min Rain = 0
KVA1 231638Z 22004KT 19/M09 A3014 RMK A01 T01851085  RH  015%=      5-min Rain = 0
KVA1 231639Z 21004KT 19/M08 A3013 RMK A01 T01851084  RH  015%=      5-min Rain = 0
KVA1 231640Z 23008KT 19/M08 A3013 RMK A01 T01861083  RH  015%=      5-min Rain = 0
KVA1 231641Z 23007KT 19/M09 A3013 RMK A01 T01861085  RH  015%=      5-min Rain = 0
KVA1 231642Z 22009KT 19/M08 A3013 RMK A01 T01871084  RH  015%=      5-min Rain = 0
KVA1 231643Z 22007KT 19/M09 A3013 RMK A01 T01871085  RH  015%=      5-min Rain = 0
KVA1 231644Z 23005KT 19/M09 A3013 RMK A01 T01861085  RH  015%=      5-min Rain = 0
KVA1 231645Z 24005KT 19/M08 A3014 RMK A01 T01881082  RH  015%=      5-min Rain = 0
KVA1 231646Z 23006KT 19/M08 A3013 RMK A01 T01901083  RH  015%=      5-min Rain = 0
KVA1 231647Z 22009KT 19/M08 A3013 RMK A01 T01911084  RH  015%=      5-min Rain = 0
KVA1 231648Z 22007KT 19/M09 A3013 RMK A01 T01901085  RH  015%=      5-min Rain = 0
KVA1 231649Z 21004KT 19/M09 A3014 RMK A01 T01891085  RH  015%=      5-min Rain = 0
KVA1 231650Z 23005KT 19/M09 A3014 RMK A01 T01881085  RH  015%=      5-min Rain = 0
KVA1 231651Z 20004KT 19/M09 A3014 RMK A01 T01861085  RH  015%=      5-min Rain = 0
KVA1 231652Z 19006KT 19/M09 A3013 RMK A01 T01861085  RH  015%=      5-min Rain = 0
KVA1 231653Z 23011G17KT 19/M08 A3013 RMK A01 T01881083  RH  015%=      5-min Rain = 0
KVA1 231654Z 24008KT 19/M08 A3014 RMK A01 T01921080  RH  015%=      5-min Rain = 0
KVA1 231655Z 23006KT 19/M08 A3014 RMK A01 T01921082  RH  015%=      5-min Rain = 0
KVA1 231656Z 23006KT 19/M08 A3013 RMK A01 T01931081  RH  015%=      5-min Rain = 0
KVA1 231657Z 25010KT 20/M08 A3013 RMK A01 T01951081  RH  015%=      5-min Rain = 0
KVA1 231658Z 25007KT 20/M08 A3014 RMK A01 T01951082  RH  015%=      5-min Rain = 0
KVA1 231659Z 23007KT 20/M08 A3014 RMK A01 T01951083  RH  014%=      5-min Rain = 0
KVA1 231700Z 23008KT 19/M09 A3014 RMK A01 T01941085  RH  014%=      5-min Rain = 0
KVA1 231701Z 24005KT 19/M09 A3014 RMK A01 T01921088  RH  014%=      5-min Rain = 0
KVA1 231702Z 28004KT 19/M09 A3014 RMK A01 T01911086  RH  014%=      5-min Rain = 0
KVA1 231703Z 30007KT 19/M08 A3014 RMK A01 T01931083  RH  015%=      5-min Rain = 0
KVA1 231704Z 29008KT 20/M08 A3014 RMK A01 T01951081  RH  015%=      5-min Rain = 0
KVA1 231705Z 23010KT 20/M08 A3014 RMK A01 T01951080  RH  015%=      5-min Rain = 0
KVA1 231706Z 24010KT 20/M08 A3014 RMK A01 T01951079  RH  015%=      5-min Rain = 0
KVA1 231707Z 24007KT 20/M08 A3014 RMK A01 T01961081  RH  015%=      5-min Rain = 0
KVA1 231708Z 26008KT 20/M08 A3014 RMK A01 T01951080  RH  015%=      5-min Rain = 0
KVA1 231709Z 28009KT 20/M08 A3014 RMK A01 T01971076  RH  015%=      5-min Rain = 0
KVA1 231710Z 24010KT 20/M08 A3014 RMK A01 T01971076  RH  015%=      5-min Rain = 0
KVA1 231711Z 25008KT 20/M07 A3014 RMK A01 T01971072  RH  016%=      5-min Rain = 0
KVA1 231712Z 25007KT 20/M07 A3014 RMK A01 T01971073  RH  016%=      5-min Rain = 0
KVA1 231713Z 26008KT 20/M07 A3014 RMK A01 T01991072  RH  015%=      5-min Rain = 0
KVA1 231714Z 26008KT 20/M07 A3014 RMK A01 T02021071  RH  015%=      5-min Rain = 0
KVA1 231715Z 28010KT 21/M07 A3014 RMK A01 T02051073  RH  015%=      5-min Rain = 0
KVA1 231716Z 28008KT 20/M07 A3014 RMK A01 T02021074  RH  015%=      5-min Rain = 0
KVA1 231717Z 28010KT 20/M07 A3014 RMK A01 T02041069  RH  015%=      5-min Rain = 0
KVA1 231718Z 28009G14KT 21/M07 A3014 RMK A01 T02051070  RH  015%=      5-min Rain = 0
KVA1 231719Z 28007KT 20/M07 A3014 RMK A01 T02041070  RH  015%=      5-min Rain = 0
KVA1 231720Z 28009KT 20/M07 A3014 RMK A01 T02041069  RH  015%=      5-min Rain = 0
KVA1 231721Z 28008KT 21/M06 A3014 RMK A01 T02061064  RH  016%=      5-min Rain = 0
KVA1 231722Z 28009KT 21/M07 A3014 RMK A01 T02081065  RH  015%=      5-min Rain = 0
KVA1 231723Z 29011KT 20/M07 A3014 RMK A01 T02041071  RH  015%=      5-min Rain = 0
KVA1 231724Z 28013KT 20/M07 A3014 RMK A01 T01991070  RH  016%=      5-min Rain = 0
KVA1 231725Z 27008KT 20/M07 A3014 RMK A01 T01981066  RH  016%=      5-min Rain = 0
KVA1 231726Z 28009KT 20/M07 A3014 RMK A01 T01991066  RH  016%=      5-min Rain = 0
KVA1 231727Z 29012KT 20/M07 A3014 RMK A01 T02001067  RH  016%=      5-min Rain = 0
KVA1 231728Z 29009KT 20/M07 A3014 RMK A01 T02011067  RH  016%=      5-min Rain = 0
KVA1 231729Z 25008KT 20/M07 A3014 RMK A01 T02021065  RH  016%=      5-min Rain = 0
KVA1 231730Z 28012KT 21/M06 A3014 RMK A01 T02051062  RH  016%=      5-min Rain = 0
KVA1 231731Z 30013KT 21/M06 A3014 RMK A01 T02061061  RH  016%=      5-min Rain = 0
KVA1 231732Z 29012KT 20/M06 A3014 RMK A01 T02041062  RH  016%=      5-min Rain = 0
KVA1 231733Z 27010KT 20/M07 A3014 RMK A01 T01991065  RH  016%=      5-min Rain = 0
KVA1 231734Z 27010KT 20/M07 A3014 RMK A01 T01981065  RH  016%=      5-min Rain = 0
KVA1 231735Z 27009KT 20/M07 A3014 RMK A01 T01981066  RH  016%=      5-min Rain = 0
KVA1 231736Z 27011KT 20/M07 A3014 RMK A01 T01971067  RH  016%=      5-min Rain = 0
KVA1 231737Z 27009KT 20/M07 A3014 RMK A01 T01991066  RH  016%=      5-min Rain = 0
KVA1 231738Z 24013KT 20/M06 A3014 RMK A01 T02031062  RH  016%=      5-min Rain = 0
KVA1 231739Z 25010KT 20/M06 A3014 RMK A01 T02041064  RH  016%=      5-min Rain = 0
KVA1 231740Z 28010KT 21/M07 A3014 RMK A01 T02051065  RH  016%=      5-min Rain = 0
KVA1 231741Z 27011KT 21/M06 A3014 RMK A01 T02061062  RH  016%=      5-min Rain = 0
KVA1 231742Z 28013KT 21/M06 A3014 RMK A01 T02061061  RH  016%=      5-min Rain = 0
KVA1 231743Z 28015KT 21/M06 A3014 RMK A01 T02061063  RH  016%=      5-min Rain = 0
KVA1 231744Z 28011KT 20/M06 A3014 RMK A01 T02031062  RH  016%=      5-min Rain = 0
KVA1 231745Z 26009G14KT 20/M06 A3014 RMK A01 T02031060  RH  016%=      5-min Rain = 0
KVA1 231746Z 25013KT 21/M06 A3014 RMK A01 T02081057  RH  016%=      5-min Rain = 0
KVA1 231747Z 25012KT 21/M06 A3014 RMK A01 T02091063  RH  016%=      5-min Rain = 0
KVA1 231748Z 25014G21KT 21/M06 A3014 RMK A01 T02071063  RH  016%=      5-min Rain = 0
KVA1 231749Z 26017G22KT 21/M06 A3014 RMK A01 T02071063  RH  016%=      5-min Rain = 0
KVA1 231750Z 27010KT 21/M06 A3014 RMK A01 T02061064  RH  016%=      5-min Rain = 0
KVA1 231751Z 26012KT 21/M06 A3014 RMK A01 T02071062  RH  016%=      5-min Rain = 0
KVA1 231752Z 26012KT 21/M06 A3014 RMK A01 T02061063  RH  016%=      5-min Rain = 0
KVA1 231753Z 27009KT 20/M06 A3014 RMK A01 T02041063  RH  016%=      5-min Rain = 0
KVA1 231754Z 25013KT 21/M06 A3014 RMK A01 T02061059  RH  016%=      5-min Rain = 0
KVA1 231755Z 25015KT 21/M06 A3014 RMK A01 T02061061  RH  016%=      5-min Rain = 0
KVA1 231756Z 23014KT 20/M06 A3014 RMK A01 T02031063  RH  016%=      5-min Rain = 0
KVA1 231757Z 24012KT 20/M06 A3013 RMK A01 T02021062  RH  016%=      5-min Rain = 0
KVA1 231758Z 24012KT 20/M06 A3013 RMK A01 T02021062  RH  016%=      5-min Rain = 0
KVA1 231759Z 25015KT 20/M06 A3014 RMK A01 T02031062  RH  016%=      5-min Rain = 0
KVA1 231800Z 27011KT 20/M06 A3014 RMK A01 T02031063  RH  016%=      5-min Rain = 0
KVA1 231801Z 27007G13KT 20/M06 A3014 RMK A01 T02041060  RH  016%=      5-min Rain = 0
KVA1 231802Z 28012KT 21/M06 A3014 RMK A01 T02071059  RH  016%=      5-min Rain = 0
KVA1 231803Z 26008KT 21/M06 A3014 RMK A01 T02071061  RH  016%=      5-min Rain = 0
KVA1 231804Z 29007KT 21/M06 A3014 RMK A01 T02061060  RH  016%=      5-min Rain = 0
KVA1 231805Z 28012G22KT 21/M06 A3013 RMK A01 T02081060  RH  016%=      5-min Rain = 0
KVA1 231806Z 26011KT 21/M06 A3013 RMK A01 T02091058  RH  016%=      5-min Rain = 0
KVA1 231807Z 27010G15KT 21/M06 A3013 RMK A01 T02071059  RH  016%=      5-min Rain = 0
KVA1 231808Z 26015G21KT 21/M06 A3013 RMK A01 T02101057  RH  016%=      5-min Rain = 0
KVA1 231809Z 27014KT 21/M06 A3013 RMK A01 T02121059  RH  016%=      5-min Rain = 0
KVA1 231810Z 28010KT 21/M06 A3013 RMK A01 T02121059  RH  016%=      5-min Rain = 0
KVA1 231811Z 29012KT 21/M06 A3013 RMK A01 T02111061  RH  015%=      5-min Rain = 0
KVA1 231812Z 28012KT 21/M06 A3013 RMK A01 T02111060  RH  016%=      5-min Rain = 0
KVA1 231813Z 28013KT 21/M06 A3013 RMK A01 T02121062  RH  015%=      5-min Rain = 0
KVA1 231814Z 27011G17KT 21/M06 A3013 RMK A01 T02131064  RH  015%=      5-min Rain = 0
KVA1 231815Z 29014KT 21/M07 A3013 RMK A01 T02131065  RH  015%=      5-min Rain = 0
KVA1 231816Z 30012KT 21/M07 A3013 RMK A01 T02131065  RH  015%=      5-min Rain = 0
KVA1 231817Z 29014KT 21/M06 A3013 RMK A01 T02121063  RH  015%=      5-min Rain = 0
KVA1 231818Z 30011KT 21/M06 A3013 RMK A01 T02111062  RH  015%=      5-min Rain = 0
KVA1 231819Z 29009KT 21/M06 A3013 RMK A01 T02111063  RH  015%=      5-min Rain = 0
KVA1 231820Z 30008KT 21/M06 A3013 RMK A01 T02091063  RH  016%=      5-min Rain = 0
KVA1 231821Z 27010G17KT 21/M06 A3013 RMK A01 T02081063  RH  016%=      5-min Rain = 0
KVA1 231822Z 25009KT 21/M06 A3012 RMK A01 T02101060  RH  016%=      5-min Rain = 0
KVA1 231823Z 28008G16KT 21/M06 A3012 RMK A01 T02131061  RH  015%=      5-min Rain = 0
KVA1 231824Z 28014KT 21/M06 A3012 RMK A01 T02141063  RH  015%=      5-min Rain = 0
KVA1 231825Z 31011KT 21/M06 A3012 RMK A01 T02131064  RH  015%=      5-min Rain = 0
KVA1 231826Z 29013G18KT 21/M07 A3012 RMK A01 T02101066  RH  015%=      5-min Rain = 0
KVA1 231827Z 29009KT 21/M07 A3012 RMK A01 T02051067  RH  015%=      5-min Rain = 0
KVA1 231828Z 28008KT 20/M07 A3012 RMK A01 T02031066  RH  016%=      5-min Rain = 0
KVA1 231829Z 27008KT 21/M06 A3012 RMK A01 T02051064  RH  016%=      5-min Rain = 0
KVA1 231830Z 24007KT 21/M07 A3012 RMK A01 T02061065  RH  016%=      5-min Rain = 0
KVA1 231831Z 25009G15KT 21/M06 A3012 RMK A01 T02091063  RH  016%=      5-min Rain = 0
KVA1 231832Z 23010KT 21/M07 A3012 RMK A01 T02101065  RH  015%=      5-min Rain = 0
KVA1 231833Z 23008KT 21/M07 A3012 RMK A01 T02091066  RH  015%=      5-min Rain = 0
KVA1 231834Z 25008KT 21/M07 A3012 RMK A01 T02081067  RH  015%=      5-min Rain = 0
KVA1 231835Z 26012KT 21/M07 A3012 RMK A01 T02091065  RH  015%=      5-min Rain = 0
KVA1 231836Z 26014KT 21/M07 A3012 RMK A01 T02111065  RH  015%=      5-min Rain = 0
KVA1 231837Z 25010KT 21/M07 A3012 RMK A01 T02101065  RH  015%=      5-min Rain = 0
KVA1 231838Z 26009KT 21/M07 A3012 RMK A01 T02091066  RH  015%=      5-min Rain = 0
KVA1 231839Z 25012G18KT 21/M07 A3012 RMK A01 T02101066  RH  015%=      5-min Rain = 0
KVA1 231840Z 26014G19KT 21/M07 A3012 RMK A01 T02111066  RH  015%=      5-min Rain = 0
KVA1 231841Z 27015KT 21/M07 A3012 RMK A01 T02121071  RH  014%=      5-min Rain = 0
KVA1 231842Z 26013KT 21/M07 A3012 RMK A01 T02111072  RH  014%=      5-min Rain = 0
KVA1 231843Z 26012G17KT 21/M07 A3012 RMK A01 T02091073  RH  014%=      5-min Rain = 0
KVA1 231844Z 26015KT 21/M07 A3012 RMK A01 T02071071  RH  015%=      5-min Rain = 0
KVA1 231845Z 26012KT 21/M07 A3012 RMK A01 T02081069  RH  015%=      5-min Rain = 0
KVA1 231846Z 26013KT 21/M07 A3012 RMK A01 T02081069  RH  015%=      5-min Rain = 0
KVA1 231847Z 25011KT 21/M07 A3012 RMK A01 T02121065  RH  015%=      5-min Rain = 0
KVA1 231848Z 28016KT 22/M06 A3012 RMK A01 T02161064  RH  015%=      5-min Rain = 0
KVA1 231849Z 28017KT 22/M07 A3012 RMK A01 T02151065  RH  015%=      5-min Rain = 0
KVA1 231850Z 28014KT 21/M07 A3012 RMK A01 T02121067  RH  015%=      5-min Rain = 0
KVA1 231851Z 28010KT 21/M07 A3012 RMK A01 T02101068  RH  015%=      5-min Rain = 0
KVA1 231852Z 28014KT 21/M07 A3012 RMK A01 T02091066  RH  015%=      5-min Rain = 0
KVA1 231853Z 28014KT 21/M07 A3012 RMK A01 T02101065  RH  015%=      5-min Rain = 0
KVA1 231854Z 26008KT 21/M07 A3011 RMK A01 T02101066  RH  015%=      5-min Rain = 0
KVA1 231855Z 26008KT 21/M07 A3011 RMK A01 T02071067  RH  015%=      5-min Rain = 0
KVA1 231856Z 24010KT 21/M07 A3011 RMK A01 T02071065  RH  015%=      5-min Rain = 0
KVA1 231857Z 26013KT 21/M06 A3011 RMK A01 T02121062  RH  015%=      5-min Rain = 0
KVA1 231858Z 26011KT 21/M06 A3011 RMK A01 T02121064  RH  015%=      5-min Rain = 0
KVA1 231859Z 27012KT 21/M06 A3011 RMK A01 T02131062  RH  015%=      5-min Rain = 0
KVA1 231900Z 26013G18KT 22/M06 A3011 RMK A01 T02161062  RH  015%=      5-min Rain = 0
KVA1 231901Z 25013KT 22/M06 A3011 RMK A01 T02171064  RH  015%=      5-min Rain = 0
KVA1 231902Z 24013KT 22/M06 A3011 RMK A01 T02181064  RH  015%=      5-min Rain = 0
KVA1 231903Z 25013G19KT 22/M07 A3011 RMK A01 T02191065  RH  014%=      5-min Rain = 0
KVA1 231904Z 26013KT 22/M07 A3011 RMK A01 T02181065  RH  014%=      5-min Rain = 0
KVA1 231905Z 27011KT 22/M06 A3011 RMK A01 T02151064  RH  015%=      5-min Rain = 0
KVA1 231906Z 27009KT 21/M06 A3011 RMK A01 T02141062  RH  015%=      5-min Rain = 0
KVA1 231907Z 27011KT 22/M06 A3011 RMK A01 T02161061  RH  015%=      5-min Rain = 0
KVA1 231908Z 28011G16KT 22/M06 A3011 RMK A01 T02181061  RH  015%=      5-min Rain = 0
KVA1 231909Z 30016KT 22/M06 A3011 RMK A01 T02181059  RH  015%=      5-min Rain = 0
KVA1 231910Z 31014KT 22/M06 A3011 RMK A01 T02181063  RH  015%=      5-min Rain = 0
KVA1 231911Z 30010KT 22/M07 A3011 RMK A01 T02161065  RH  015%=      5-min Rain = 0
KVA1 231912Z 28011G16KT 22/M06 A3011 RMK A01 T02171062  RH  015%=      5-min Rain = 0
KVA1 231913Z 27012G17KT 22/M06 A3011 RMK A01 T02181062  RH  015%=      5-min Rain = 0
KVA1 231914Z 29017G23KT 22/M06 A301 RMK A01 T02221062  RH  014%=      5-min Rain = 0
KVA1 231915Z 29013KT 22/M07 A3011 RMK A01 T02201066  RH  014%=      5-min Rain = 0
KVA1 231916Z 29016KT 22/M06 A3011 RMK A01 T02181063  RH  015%=      5-min Rain = 0
KVA1 231917Z 28016KT 22/M06 A3011 RMK A01 T02171061  RH  015%=      5-min Rain = 0
KVA1 231918Z 28015KT 22/M06 A3011 RMK A01 T02151060  RH  015%=      5-min Rain = 0
KVA1 231919Z 28013KT 21/M06 A3011 RMK A01 T02141060  RH  015%=      5-min Rain = 0
KVA1 231920Z 28013G18KT 22/M06 A3011 RMK A01 T02151061  RH  015%=      5-min Rain = 0
KVA1 231921Z 28016KT 22/M06 A301 RMK A01 T02171060  RH  015%=      5-min Rain = 0
KVA1 231922Z 28015G20KT 22/M06 A301 RMK A01 T02171061  RH  015%=      5-min Rain = 0
KVA1 231923Z 26015KT 22/M06 A301 RMK A01 T02171061  RH  015%=      5-min Rain = 0
KVA1 231924Z 26012KT 22/M06 A301 RMK A01 T02161061  RH  015%=      5-min Rain = 0
KVA1 231925Z 26009KT 21/M06 A301 RMK A01 T02141063  RH  015%=      5-min Rain = 0
KVA1 231926Z 26008KT 21/M06 A301 RMK A01 T02121062  RH  015%=      5-min Rain = 0
KVA1 231927Z 29011KT 22/M06 A301 RMK A01 T02161059  RH  015%=      5-min Rain = 0
KVA1 231928Z 27011KT 22/M06 A301 RMK A01 T02191061  RH  015%=      5-min Rain = 0
KVA1 231929Z 28007KT 22/M06 A301 RMK A01 T02161064  RH  015%=      5-min Rain = 0
KVA1 231930Z 27008G13KT 21/M06 A301 RMK A01 T02141062  RH  015%=      5-min Rain = 0
KVA1 231931Z 29012KT 22/M06 A301 RMK A01 T02171059  RH  015%=      5-min Rain = 0
KVA1 231932Z 25011G16KT 22/M06 A301 RMK A01 T02221060  RH  015%=      5-min Rain = 0
KVA1 231933Z 26010G16KT 23/M06 A301 RMK A01 T02271059  RH  014%=      5-min Rain = 0
KVA1 231934Z 27011G16KT 23/M06 A301 RMK A01 T02321058  RH  014%=      5-min Rain = 0
KVA1 231935Z 29013KT 23/M06 A301 RMK A01 T02291063  RH  014%=      5-min Rain = 0
KVA1 231936Z 27010KT 22/M07 A301 RMK A01 T02221065  RH  014%=      5-min Rain = 0
KVA1 231937Z 27009KT 22/M06 A301 RMK A01 T02211063  RH  014%=      5-min Rain = 0
KVA1 231938Z 27011KT 22/M06 A301 RMK A01 T02231061  RH  014%=      5-min Rain = 0
KVA1 231939Z 27011KT 22/M06 A301 RMK A01 T02241060  RH  014%=      5-min Rain = 0
KVA1 231940Z 26013KT 22/M06 A3009 RMK A01 T02231062  RH  014%=      5-min Rain = 0
KVA1 231941Z 28014KT 22/M06 A301 RMK A01 T02231062  RH  014%=      5-min Rain = 0
KVA1 231942Z 29016KT 22/M07 A301 RMK A01 T02221065  RH  014%=      5-min Rain = 0
KVA1 231943Z 29015KT 22/M07 A3009 RMK A01 T02171065  RH  014%=      5-min Rain = 0
KVA1 231944Z 29015KT 22/M06 A301 RMK A01 T02171063  RH  015%=      5-min Rain = 0
KVA1 231945Z 30014KT 22/M06 A3009 RMK A01 T02171064  RH  015%=      5-min Rain = 0
KVA1 231946Z 30016G21KT 22/M07 A3009 RMK A01 T02161065  RH  015%=      5-min Rain = 0
KVA1 231947Z 30012KT 22/M07 A3009 RMK A01 T02161068  RH  014%=      5-min Rain = 0
KVA1 231948Z 28014KT 22/M07 A3009 RMK A01 T02161068  RH  014%=      5-min Rain = 0
KVA1 231949Z 27013G18KT 22/M07 A301 RMK A01 T02171070  RH  014%=      5-min Rain = 0
KVA1 231950Z 25014G19KT 22/M07 A3009 RMK A01 T02161071  RH  014%=      5-min Rain = 0
KVA1 231951Z 27014KT 22/M07 A3009 RMK A01 T02171070  RH  014%=      5-min Rain = 0
KVA1 231952Z 28013KT 22/M07 A301 RMK A01 T02221065  RH  014%=      5-min Rain = 0
KVA1 231953Z 29014KT 23/M07 A301 RMK A01 T02271066  RH  014%=      5-min Rain = 0
KVA1 231954Z 29012KT 22/M07 A3009 RMK A01 T02241070  RH  013%=      5-min Rain = 0
KVA1 231955Z 29013G19KT 22/M07 A3009 RMK A01 T02211069  RH  014%=      5-min Rain = 0
KVA1 231956Z 28017G23KT 22/M07 A3009 RMK A01 T02201070  RH  014%=      5-min Rain = 0
KVA1 231957Z 28013G19KT 22/M07 A3009 RMK A01 T02191070  RH  014%=      5-min Rain = 0
KVA1 231958Z 27013G21KT 22/M07 A3009 RMK A01 T02191070  RH  014%=      5-min Rain = 0
KVA1 231959Z 28016KT 22/M07 A3009 RMK A01 T02231066  RH  014%=      5-min Rain = 0
KVA1 232000Z 28014KT 22/M07 A3009 RMK A01 T02221067  RH  014%=      5-min Rain = 0
KVA1 232001Z 28011KT 22/M07 A3009 RMK A01 T02201068  RH  014%=      5-min Rain = 0
KVA1 232002Z 28013KT 22/M07 A3009 RMK A01 T02171069  RH  014%=      5-min Rain = 0
KVA1 232003Z 29015G22KT 22/M07 A3009 RMK A01 T02161069  RH  014%=      5-min Rain = 0
KVA1 232004Z 28011KT 22/M07 A3009 RMK A01 T02171071  RH  014%=      5-min Rain = 0
KVA1 232005Z 27013KT 22/M07 A3009 RMK A01 T02181071  RH  014%=      5-min Rain = 0
KVA1 232006Z 25016G21KT 22/M07 A3009 RMK A01 T02211073  RH  013%=      5-min Rain = 0
KVA1 232007Z 25014G20KT 22/M08 A3009 RMK A01 T02211075  RH  013%=      5-min Rain = 0
KVA1 232008Z 24012KT 22/M08 A3009 RMK A01 T02211075  RH  013%=      5-min Rain = 0
KVA1 232009Z 23010KT 22/M08 A3009 RMK A01 T02191075  RH  013%=      5-min Rain = 0
KVA1 232010Z 23010KT 22/M07 A3008 RMK A01 T02171074  RH  013%=      5-min Rain = 0
KVA1 232011Z 25009KT 22/M07 A3009 RMK A01 T02181073  RH  014%=      5-min Rain = 0
KVA1 232012Z 29011KT 22/M07 A3009 RMK A01 T02231070  RH  013%=      5-min Rain = 0
KVA1 232013Z 29011KT 23/M08 A3008 RMK A01 T02251075  RH  013%=      5-min Rain = 0
KVA1 232014Z 26011G19KT 22/M08 A3008 RMK A01 T02221076  RH  013%=      5-min Rain = 0
KVA1 232015Z 23013G18KT 22/M08 A3008 RMK A01 T02221078  RH  013%=      5-min Rain = 0
KVA1 232016Z 24013G18KT 22/M08 A3008 RMK A01 T02231079  RH  013%=      5-min Rain = 0
KVA1 232017Z 25016KT 22/M08 A3008 RMK A01 T02231076  RH  013%=      5-min Rain = 0
KVA1 232018Z 26014KT 22/M08 A3008 RMK A01 T02231077  RH  013%=      5-min Rain = 0
KVA1 232019Z 25014KT 22/M08 A3009 RMK A01 T02201077  RH  013%=      5-min Rain = 0
KVA1 232020Z 24013KT 22/M08 A3009 RMK A01 T02201076  RH  013%=      5-min Rain = 0
KVA1 232021Z 25010KT 22/M08 A3009 RMK A01 T02211075  RH  013%=      5-min Rain = 0
KVA1 232022Z 26011KT 22/M08 A3009 RMK A01 T02231075  RH  013%=      5-min Rain = 0
KVA1 232023Z 27008KT 22/M08 A3008 RMK A01 T02231076  RH  013%=      5-min Rain = 0
KVA1 232024Z 25008G14KT 22/M08 A3008 RMK A01 T02231076  RH  013%=      5-min Rain = 0
KVA1 232025Z 27010KT 23/M08 A3008 RMK A01 T02261076  RH  013%=      5-min Rain = 0
KVA1 232026Z 25009G14KT 23/M08 A3008 RMK A01 T02271079  RH  012%=      5-min Rain = 0
KVA1 232027Z 26007KT 23/M08 A3008 RMK A01 T02261083  RH  012%=      5-min Rain = 0
KVA1 232028Z 28013G18KT 23/M08 A3008 RMK A01 T02261083  RH  012%=      5-min Rain = 0
KVA1 232029Z 27015KT 23/M08 A3008 RMK A01 T02251083  RH  012%=      5-min Rain = 0
KVA1 232030Z 26014KT 22/M09 A3008 RMK A01 T02221088  RH  012%=      5-min Rain = 0
KVA1 232031Z 26009KT 22/M09 A3008 RMK A01 T02211086  RH  012%=      5-min Rain = 0
KVA1 232032Z 26013KT 22/M08 A3008 RMK A01 T02221084  RH  012%=      5-min Rain = 0
KVA1 232033Z 27011KT 22/M08 A3008 RMK A01 T02221081  RH  012%=      5-min Rain = 0
KVA1 232034Z 27013KT 22/M08 A3008 RMK A01 T02221078  RH  013%=      5-min Rain = 0
KVA1 232035Z 28010KT 22/M08 A3008 RMK A01 T02211077  RH  013%=      5-min Rain = 0
KVA1 232036Z 26010KT 22/M08 A3008 RMK A01 T02201077  RH  013%=      5-min Rain = 0
KVA1 232037Z 25012G17KT 22/M08 A3008 RMK A01 T02221079  RH  013%=      5-min Rain = 0
KVA1 232038Z 23014KT 22/M09 A3008 RMK A01 T02211085  RH  012%=      5-min Rain = 0
KVA1 232039Z 24011KT 22/M09 A3007 RMK A01 T02181085  RH  012%=      5-min Rain = 0
KVA1 232040Z 23011KT 22/M08 A3008 RMK A01 T02181084  RH  012%=      5-min Rain = 0
KVA1 232041Z 22014KT 22/M08 A3008 RMK A01 T02191082  RH  013%=      5-min Rain = 0
KVA1 232042Z 22010KT 22/M08 A3007 RMK A01 T02191082  RH  013%=      5-min Rain = 0
KVA1 232043Z 23008KT 22/M08 A3007 RMK A01 T02171083  RH  013%=      5-min Rain = 0
KVA1 232044Z 25006KT 22/M08 A3007 RMK A01 T02181081  RH  013%=      5-min Rain = 0
KVA1 232045Z 24008G15KT 22/M08 A3007 RMK A01 T02241076  RH  013%=      5-min Rain = 0
KVA1 232046Z 23013KT 23/M08 A3007 RMK A01 T02281079  RH  012%=      5-min Rain = 0
KVA1 232047Z 23011KT 23/M08 A3007 RMK A01 T02271079  RH  012%=      5-min Rain = 0
KVA1 232048Z 24010KT 23/M08 A3007 RMK A01 T02261078  RH  012%=      5-min Rain = 0
KVA1 232049Z 25008KT 23/M08 A3007 RMK A01 T02261078  RH  012%=      5-min Rain = 0
KVA1 232050Z 25007KT 23/M08 A3007 RMK A01 T02261077  RH  013%=      5-min Rain = 0
KVA1 232051Z 27008KT 23/M07 A3007 RMK A01 T02301074  RH  013%=      5-min Rain = 0
KVA1 232052Z 30012KT 23/M08 A3007 RMK A01 T02321075  RH  012%=      5-min Rain = 0
KVA1 232053Z 26014G19KT 23/M08 A3007 RMK A01 T02341075  RH  012%=      5-min Rain = 0
KVA1 232054Z 25011KT 24/M07 A3007 RMK A01 T02351073  RH  012%=      5-min Rain = 0
KVA1 232055Z 26012KT 24/M08 A3007 RMK A01 T02361075  RH  012%=      5-min Rain = 0
KVA1 232056Z 25012KT 23/M08 A3007 RMK A01 T02311079  RH  012%=      5-min Rain = 0
KVA1 232057Z 27012G17KT 23/M08 A3007 RMK A01 T02301076  RH  012%=      5-min Rain = 0
KVA1 232058Z 27012KT 23/M08 A3007 RMK A01 T02311076  RH  012%=      5-min Rain = 0
KVA1 232059Z 28010KT 23/M08 A3007 RMK A01 T02271078  RH  012%=      5-min Rain = 0
KVA1 232100Z 28009G15KT 22/M08 A3006 RMK A01 T02241078  RH  013%=      5-min Rain = 0
KVA1 232101Z 28012KT 23/M08 A3006 RMK A01 T02261076  RH  013%=      5-min Rain = 0
KVA1 232102Z 28012KT 23/M08 A3006 RMK A01 T02261077  RH  013%=      5-min Rain = 0
KVA1 232103Z 28013KT 23/M08 A3006 RMK A01 T02271078  RH  012%=      5-min Rain = 0
KVA1 232104Z 28014KT 23/M08 A3006 RMK A01 T02281078  RH  012%=      5-min Rain = 0
KVA1 232105Z 27013KT 23/M08 A3006 RMK A01 T02291078  RH  012%=      5-min Rain = 0
KVA1 232106Z 28009KT 23/M08 A3006 RMK A01 T02251082  RH  012%=      5-min Rain = 0
KVA1 232107Z 29008KT 22/M08 A3006 RMK A01 T02221080  RH  012%=      5-min Rain = 0
KVA1 232108Z 29007KT 22/M08 A3006 RMK A01 T02221080  RH  013%=      5-min Rain = 0
KVA1 232109Z 26008KT 22/M08 A3006 RMK A01 T02221079  RH  013%=      5-min Rain = 0
KVA1 232110Z 27007KT 22/M08 A3006 RMK A01 T02241077  RH  013%=      5-min Rain = 0
KVA1 232111Z 27004KT 23/M08 A3006 RMK A01 T02251076  RH  013%=      5-min Rain = 0
KVA1 232112Z 27012KT 23/M08 A3006 RMK A01 T02261076  RH  013%=      5-min Rain = 0
KVA1 232113Z 29013KT 23/M08 A3006 RMK A01 T02271076  RH  013%=      5-min Rain = 0
KVA1 232114Z 27011KT 23/M08 A3006 RMK A01 T02271078  RH  012%=      5-min Rain = 0
KVA1 232115Z 25012KT 23/M08 A3006 RMK A01 T02291078  RH  012%=      5-min Rain = 0
KVA1 232116Z 25010KT 23/M08 A3006 RMK A01 T02311081  RH  012%=      5-min Rain = 0
KVA1 232117Z 24010KT 23/M08 A3006 RMK A01 T02301083  RH  012%=      5-min Rain = 0
KVA1 232118Z 24011KT 23/M08 A3006 RMK A01 T02291081  RH  012%=      5-min Rain = 0
KVA1 232119Z 26011G16KT 23/M08 A3006 RMK A01 T02291079  RH  012%=      5-min Rain = 0
KVA1 232120Z 26011G19KT 23/M08 A3006 RMK A01 T02311078  RH  012%=      5-min Rain = 0
KVA1 232121Z 26015KT 23/M08 A3006 RMK A01 T02331077  RH  012%=      5-min Rain = 0
KVA1 232122Z 26013KT 23/M08 A3006 RMK A01 T02331080  RH  012%=      5-min Rain = 0
KVA1 232123Z 24010KT 23/M08 A3006 RMK A01 T02311081  RH  012%=      5-min Rain = 0
KVA1 232124Z 26009KT 23/M08 A3006 RMK A01 T02301079  RH  012%=      5-min Rain = 0
KVA1 232125Z 26011KT 23/M08 A3006 RMK A01 T02301079  RH  012%=      5-min Rain = 0
KVA1 232126Z 27007KT 23/M08 A3006 RMK A01 T02281079  RH  012%=      5-min Rain = 0
KVA1 232127Z 27006KT 23/M08 A3006 RMK A01 T02261079  RH  012%=      5-min Rain = 0
KVA1 232128Z 28009KT 23/M08 A3005 RMK A01 T02261077  RH  013%=      5-min Rain = 0
KVA1 232129Z 24007KT 23/M08 A3005 RMK A01 T02251078  RH  012%=      5-min Rain = 0
KVA1 232130Z 24006KT 23/M08 A3005 RMK A01 T02261077  RH  013%=      5-min Rain = 0
KVA1 232131Z 23009KT 23/M08 A3005 RMK A01 T02251077  RH  013%=      5-min Rain = 0
KVA1 232132Z 24007KT 23/M08 A3005 RMK A01 T02261078  RH  012%=      5-min Rain = 0
KVA1 232133Z 23007KT 23/M08 A3005 RMK A01 T02261076  RH  013%=      5-min Rain = 0
KVA1 232134Z 26010KT 23/M07 A3005 RMK A01 T02311073  RH  013%=      5-min Rain = 0
KVA1 232135Z 27009KT 23/M08 A3005 RMK A01 T02321075  RH  012%=      5-min Rain = 0
KVA1 232136Z 28010G18KT 23/M08 A3005 RMK A01 T02291078  RH  012%=      5-min Rain = 0
KVA1 232137Z 28015KT 23/M08 A3005 RMK A01 T02291076  RH  012%=      5-min Rain = 0
KVA1 232138Z 27015KT 23/M08 A3005 RMK A01 T02281076  RH  012%=      5-min Rain = 0
KVA1 232139Z 28014KT 23/M08 A3005 RMK A01 T02281076  RH  012%=      5-min Rain = 0
KVA1 232140Z 27010KT 23/M08 A3005 RMK A01 T02271077  RH  012%=      5-min Rain = 0
KVA1 232141Z 29010G16KT 23/M08 A3005 RMK A01 T02251077  RH  013%=      5-min Rain = 0
KVA1 232142Z 28014KT 23/M08 A3005 RMK A01 T02281075  RH  013%=      5-min Rain = 0
KVA1 232143Z 29014KT 23/M08 A3005 RMK A01 T02301076  RH  012%=      5-min Rain = 0
KVA1 232144Z 29014KT 23/M08 A3005 RMK A01 T02291077  RH  012%=      5-min Rain = 0
KVA1 232145Z 27014KT 23/M08 A3005 RMK A01 T02291077  RH  012%=      5-min Rain = 0
KVA1 232146Z 26010KT 23/M08 A3005 RMK A01 T02301076  RH  012%=      5-min Rain = 0
KVA1 232147Z 25010KT 23/M07 A3005 RMK A01 T02321073  RH  012%=      5-min Rain = 0
KVA1 232148Z 23010KT 23/M07 A3005 RMK A01 T02341074  RH  012%=      5-min Rain = 0
KVA1 232149Z 25011KT 23/M07 A3005 RMK A01 T02341074  RH  012%=      5-min Rain = 0
KVA1 232150Z 23009KT 23/M07 A3005 RMK A01 T02341074  RH  012%=      5-min Rain = 0
KVA1 232151Z 22010KT 23/M07 A3005 RMK A01 T02331074  RH  012%=      5-min Rain = 0
KVA1 232152Z 25007KT 24/M07 A3005 RMK A01 T02351072  RH  012%=      5-min Rain = 0
KVA1 232153Z 26008KT 24/M07 A3005 RMK A01 T02381072  RH  012%=      5-min Rain = 0
KVA1 232154Z 27011KT 24/M07 A3005 RMK A01 T02371073  RH  012%=      5-min Rain = 0
KVA1 232155Z 25011KT 24/M07 A3005 RMK A01 T02381073  RH  012%=      5-min Rain = 0
KVA1 232156Z 25012KT 24/M07 A3004 RMK A01 T02371074  RH  012%=      5-min Rain = 0
KVA1 232157Z 26012KT 24/M07 A3004 RMK A01 T02361074  RH  012%=      5-min Rain = 0
KVA1 232158Z 27008KT 24/M07 A3004 RMK A01 T02351072  RH  012%=      5-min Rain = 0
KVA1 232159Z 28009G14KT 23/M07 A3004 RMK A01 T02341072  RH  012%=      5-min Rain = 0
KVA1 232200Z 25014KT 24/M07 A3004 RMK A01 T02351073  RH  012%=      5-min Rain = 0
KVA1 232201Z 23012KT 24/M08 A3004 RMK A01 T02351075  RH  012%=      5-min Rain = 0
KVA1 232202Z 23013KT 24/M08 A3004 RMK A01 T02351075  RH  012%=      5-min Rain = 0
KVA1 232203Z 22009KT 23/M08 A3004 RMK A01 T02331076  RH  012%=      5-min Rain = 0
KVA1 232204Z 23012KT 23/M08 A3004 RMK A01 T02311075  RH  012%=      5-min Rain = 0
KVA1 232205Z 23006KT 23/M08 A3004 RMK A01 T02291075  RH  012%=      5-min Rain = 0
KVA1 232206Z 25010G17KT 23/M07 A3003 RMK A01 T02281074  RH  013%=      5-min Rain = 0
KVA1 232207Z 25006KT 23/M07 A3003 RMK A01 T02291073  RH  013%=      5-min Rain = 0
KVA1 232208Z 26007KT 23/M07 A3003 RMK A01 T02301071  RH  013%=      5-min Rain = 0
KVA1 232209Z 23011G16KT 23/M07 A3003 RMK A01 T02311071  RH  013%=      5-min Rain = 0
KVA1 232210Z 24010KT 23/M07 A3003 RMK A01 T02321073  RH  012%=      5-min Rain = 0
KVA1 232211Z 24011KT 23/M07 A3003 RMK A01 T02331074  RH  012%=      5-min Rain = 0
KVA1 232212Z 24009KT 23/M08 A3003 RMK A01 T02321076  RH  012%=      5-min Rain = 0
KVA1 232213Z 24006KT 23/M08 A3003 RMK A01 T02281077  RH  012%=      5-min Rain = 0
KVA1 232214Z 25007KT 23/M08 A3003 RMK A01 T02261075  RH  013%=      5-min Rain = 0
KVA1 232215Z 26008KT 23/M08 A3003 RMK A01 T02271075  RH  013%=      5-min Rain = 0
KVA1 232216Z 25011KT 23/M08 A3003 RMK A01 T02281077  RH  012%=      5-min Rain = 0
KVA1 232217Z 25004KT 23/M08 A3003 RMK A01 T02301078  RH  012%=      5-min Rain = 0
KVA1 232218Z 25005KT 23/M08 A3003 RMK A01 T02301078  RH  012%=      5-min Rain = 0
KVA1 232219Z 26007KT 23/M08 A3003 RMK A01 T02311077  RH  012%=      5-min Rain = 0
KVA1 232220Z 25015KT 24/M08 A3003 RMK A01 T02351075  RH  012%=      5-min Rain = 0
KVA1 232221Z 24012KT 24/M08 A3003 RMK A01 T02361078  RH  012%=      5-min Rain = 0
KVA1 232222Z 24011KT 24/M08 A3003 RMK A01 T02361078  RH  012%=      5-min Rain = 0
KVA1 232223Z 24010KT 23/M08 A3003 RMK A01 T02341078  RH  012%=      5-min Rain = 0
KVA1 232224Z 25010KT 23/M08 A3003 RMK A01 T02341076  RH  012%=      5-min Rain = 0
KVA1 232225Z 24009KT 23/M08 A3003 RMK A01 T02311078  RH  012%=      5-min Rain = 0
KVA1 232226Z 23009KT 23/M08 A3003 RMK A01 T02311076  RH  012%=      5-min Rain = 0
KVA1 232227Z 23008KT 23/M08 A3003 RMK A01 T02311076  RH  012%=      5-min Rain = 0
KVA1 232228Z 22009KT 23/M08 A3003 RMK A01 T02311077  RH  012%=      5-min Rain = 0
KVA1 232229Z 24009KT 23/M08 A3002 RMK A01 T02301077  RH  012%=      5-min Rain = 0
KVA1 232230Z 24006KT 23/M07 A3003 RMK A01 T02321073  RH  012%=      5-min Rain = 0
KVA1 232231Z 23006KT 24/M07 A3003 RMK A01 T02381071  RH  012%=      5-min Rain = 0
KVA1 232232Z 23009KT 24/M07 A3003 RMK A01 T02401074  RH  012%=      5-min Rain = 0
KVA1 232233Z 22010KT 24/M08 A3003 RMK A01 T02361078  RH  012%=      5-min Rain = 0
KVA1 232234Z 21009KT 23/M08 A3002 RMK A01 T02321078  RH  012%=      5-min Rain = 0
KVA1 232235Z 22009KT 23/M08 A3002 RMK A01 T02321078  RH  012%=      5-min Rain = 0
KVA1 232236Z 23010KT 23/M08 A3002 RMK A01 T02321078  RH  012%=      5-min Rain = 0
KVA1 232237Z 23010KT 24/M08 A3002 RMK A01 T02351077  RH  012%=      5-min Rain = 0
KVA1 232238Z 23007KT 24/M08 A3002 RMK A01 T02351079  RH  012%=      5-min Rain = 0
KVA1 232239Z 23006KT 24/M08 A3002 RMK A01 T02361075  RH  012%=      5-min Rain = 0
KVA1 232240Z 25008KT 24/M07 A3002 RMK A01 T02401074  RH  012%=      5-min Rain = 0
KVA1 232241Z 26010KT 24/M08 A3002 RMK A01 T02411077  RH  011%=      5-min Rain = 0
KVA1 232242Z 25010KT 24/M08 A3002 RMK A01 T02391079  RH  011%=      5-min Rain = 0
KVA1 232243Z 23008KT 24/M08 A3002 RMK A01 T02361080  RH  012%=      5-min Rain = 0
KVA1 232244Z 24006KT 24/M08 A3002 RMK A01 T02351079  RH  012%=      5-min Rain = 0
KVA1 232245Z 25006G11KT 24/M08 A3002 RMK A01 T02361080  RH  012%=      5-min Rain = 0
KVA1 232246Z 28008KT 24/M08 A3002 RMK A01 T02361081  RH  011%=      5-min Rain = 0
KVA1 232247Z 28010KT 24/M08 A3003 RMK A01 T02371080  RH  011%=      5-min Rain = 0
KVA1 232248Z 27009KT 24/M08 A3003 RMK A01 T02371081  RH  011%=      5-min Rain = 0
KVA1 232249Z 26007KT 24/M08 A3002 RMK A01 T02361082  RH  011%=      5-min Rain = 0
KVA1 232250Z 25005KT 24/M08 A3002 RMK A01 T02351082  RH  011%=      5-min Rain = 0
KVA1 232251Z 25005KT 24/M08 A3002 RMK A01 T02371081  RH  011%=      5-min Rain = 0
KVA1 232252Z 23007KT 24/M08 A3002 RMK A01 T02361082  RH  011%=      5-min Rain = 0
KVA1 232253Z 24008KT 24/M08 A3002 RMK A01 T02361081  RH  011%=      5-min Rain = 0
KVA1 232254Z 24008KT 24/M08 A3002 RMK A01 T02371081  RH  011%=      5-min Rain = 0
KVA1 232255Z 24015KT 24/M08 A3002 RMK A01 T02361080  RH  012%=      5-min Rain = 0
KVA1 232256Z 24013KT 24/M08 A3002 RMK A01 T02371083  RH  011%=      5-min Rain = 0
KVA1 232257Z 25009KT 24/M09 A3002 RMK A01 T02351087  RH  011%=      5-min Rain = 0
KVA1 232258Z 27010KT 23/M09 A3002 RMK A01 T02341086  RH  011%=      5-min Rain = 0
KVA1 232259Z 27008KT 24/M09 A3002 RMK A01 T02351086  RH  011%=      5-min Rain = 0
KVA1 232300Z 26006KT 24/M09 A3002 RMK A01 T02351087  RH  011%=      5-min Rain = 0
KVA1 232301Z 26006KT 24/M08 A3002 RMK A01 T02361084  RH  011%=      5-min Rain = 0
KVA1 232302Z 26008KT 24/M08 A3002 RMK A01 T02371082  RH  011%=      5-min Rain = 0
KVA1 232303Z 26006KT 24/M08 A3002 RMK A01 T02381082  RH  011%=      5-min Rain = 0
KVA1 232304Z 26005KT 24/M08 A3002 RMK A01 T02371083  RH  011%=      5-min Rain = 0
KVA1 232305Z 26005KT 24/M08 A3002 RMK A01 T02361084  RH  011%=      5-min Rain = 0
KVA1 232306Z 27008KT 24/M08 A3002 RMK A01 T02351084  RH  011%=      5-min Rain = 0
KVA1 232307Z 26009KT 24/M08 A3002 RMK A01 T02361084  RH  011%=      5-min Rain = 0
KVA1 232308Z 24009KT 24/M08 A3002 RMK A01 T02361084  RH  011%=      5-min Rain = 0
KVA1 232309Z 23010KT 24/M09 A3002 RMK A01 T02381085  RH  011%=      5-min Rain = 0
KVA1 232310Z 23010KT 24/M09 A3002 RMK A01 T02401089  RH  010%=      5-min Rain = 0
KVA1 232311Z 22011KT 24/M09 A3002 RMK A01 T02401090  RH  010%=      5-min Rain = 0
KVA1 232312Z 20012G17KT 24/M09 A3002 RMK A01 T02391089  RH  011%=      5-min Rain = 0
KVA1 232313Z 21013KT 24/M09 A3002 RMK A01 T02381088  RH  011%=      5-min Rain = 0
KVA1 232314Z 22014KT 24/M09 A3002 RMK A01 T02381088  RH  011%=      5-min Rain = 0
KVA1 232315Z 24011KT 24/M09 A3002 RMK A01 T02381088  RH  011%=      5-min Rain = 0
KVA1 232316Z 24009KT 24/M09 A3002 RMK A01 T02381091  RH  010%=      5-min Rain = 0
KVA1 232317Z 24010KT 24/M09 A3002 RMK A01 T02361091  RH  011%=      5-min Rain = 0
KVA1 232318Z 23008KT 24/M09 A3002 RMK A01 T02361091  RH  011%=      5-min Rain = 0
KVA1 232319Z 23005KT 24/M09 A3002 RMK A01 T02351094  RH  010%=      5-min Rain = 0
KVA1 232320Z 22007KT 24/M09 A3002 RMK A01 T02361089  RH  011%=      5-min Rain = 0
KVA1 232321Z 22005KT 24/M09 A3002 RMK A01 T02381092  RH  010%=      5-min Rain = 0
KVA1 232322Z 22007KT 24/M09 A3002 RMK A01 T02361091  RH  011%=      5-min Rain = 0
KVA1 232323Z 25010KT 24/M09 A3002 RMK A01 T02361090  RH  011%=      5-min Rain = 0
KVA1 232324Z 24011KT 24/M09 A3002 RMK A01 T02371091  RH  011%=      5-min Rain = 0
KVA1 232325Z 25009KT 24/M09 A3002 RMK A01 T02381093  RH  010%=      5-min Rain = 0
KVA1 232326Z 25010KT 24/M10 A3002 RMK A01 T02381095  RH  010%=      5-min Rain = 0
KVA1 232327Z 26008KT 24/M10 A3002 RMK A01 T02371095  RH  010%=      5-min Rain = 0
KVA1 232328Z 23010KT 24/M10 A3002 RMK A01 T02371096  RH  010%=      5-min Rain = 0
KVA1 232329Z 24009KT 24/M10 A3002 RMK A01 T02361095  RH  010%=      5-min Rain = 0
KVA1 232330Z 25010KT 24/M09 A3002 RMK A01 T02381094  RH  010%=      5-min Rain = 0
KVA1 232331Z 25008KT 24/M10 A3002 RMK A01 T02371095  RH  010%=      5-min Rain = 0
KVA1 232332Z 26009KT 24/M10 A3002 RMK A01 T02361095  RH  010%=      5-min Rain = 0
KVA1 232333Z 25010KT 24/M10 A3002 RMK A01 T02351095  RH  010%=      5-min Rain = 0
KVA1 232334Z 25009KT 24/M09 A3002 RMK A01 T02351094  RH  010%=      5-min Rain = 0
KVA1 232335Z 26007KT 24/M10 A3002 RMK A01 T02351095  RH  010%=      5-min Rain = 0
KVA1 232336Z 26008KT 23/M10 A3002 RMK A01 T02341095  RH  010%=      5-min Rain = 0
KVA1 232337Z 25010KT 24/M10 A3002 RMK A01 T02351097  RH  010%=      5-min Rain = 0
KVA1 232338Z 25014KT 24/M10 A3002 RMK A01 T02361098  RH  010%=      5-min Rain = 0
KVA1 232339Z 25013KT 24/M10 A3002 RMK A01 T02371101  RH  010%=      5-min Rain = 0
KVA1 232340Z 25011KT 24/M10 A3002 RMK A01 T02361101  RH  010%=      5-min Rain = 0
KVA1 232341Z 24013G18KT 24/M10 A3002 RMK A01 T02361101  RH  010%=      5-min Rain = 0
KVA1 232342Z 24010KT 24/M10 A3002 RMK A01 T02361100  RH  010%=      5-min Rain = 0
KVA1 232343Z 24010KT 24/M10 A3002 RMK A01 T02371099  RH  010%=      5-min Rain = 0
KVA1 232344Z 24013KT 24/M10 A3002 RMK A01 T02371099  RH  010%=      5-min Rain = 0
KVA1 232345Z 23012KT 24/M10 A3002 RMK A01 T02361101  RH  010%=      5-min Rain = 0
KVA1 232346Z 24010KT 24/M10 A3002 RMK A01 T02351101  RH  010%=      5-min Rain = 0
KVA1 232347Z 24009KT 24/M10 A3002 RMK A01 T02351101  RH  010%=      5-min Rain = 0
KVA1 232348Z 24007KT 23/M10 A3001 RMK A01 T02341102  RH  010%=      5-min Rain = 0
KVA1 232349Z 22009G21KT 23/M10 A3001 RMK A01 T02341101  RH  010%=      5-min Rain = 0
KVA1 232350Z 26015G20KT 24/M10 A3001 RMK A01 T02351100  RH  010%=      5-min Rain = 0
KVA1 232351Z 27011KT 24/M10 A3002 RMK A01 T02351100  RH  010%=      5-min Rain = 0
KVA1 232352Z 27010KT 24/M10 A3002 RMK A01 T02351099  RH  010%=      5-min Rain = 0
KVA1 232353Z 27010KT 24/M10 A3002 RMK A01 T02351099  RH  010%=      5-min Rain = 0
KVA1 232354Z 26011KT 24/M10 A3002 RMK A01 T02351100  RH  010%=      5-min Rain = 0
KVA1 232355Z 25011KT 23/M10 A3002 RMK A01 T02341100  RH  010%=      5-min Rain = 0
KVA1 232356Z 23009KT 23/M10 A3002 RMK A01 T02341099  RH  010%=      5-min Rain = 0
KVA1 232357Z 24012KT 24/M10 A3002 RMK A01 T02361098  RH  010%=      5-min Rain = 0
KVA1 232358Z 23011KT 24/M10 A3002 RMK A01 T02351100  RH  010%=      5-min Rain = 0
KVA1 232359Z 23009KT 24/M10 A3002 RMK A01 T02351100  RH  010%=      5-min Rain = 0
KVA1 240000Z 25007KT 23/M10 A3002 RMK A01 T02341102  RH  010%=      5-min Rain = 0
KVA1 240001Z 25009KT 23/M10 A3002 RMK A01 T02341101  RH  010%=      5-min Rain = 0
KVA1 240002Z 24008KT 24/M10 A3002 RMK A01 T02351101  RH  010%=      5-min Rain = 0
KVA1 240003Z 26009KT 24/M10 A3002 RMK A01 T02361098  RH  010%=      5-min Rain = 0
KVA1 240004Z 25010KT 24/M10 A3002 RMK A01 T02361099  RH  010%=      5-min Rain = 0
KVA1 240005Z 25008KT 24/M10 A3002 RMK A01 T02371099  RH  010%=      5-min Rain = 0
KVA1 240006Z 26010KT 24/M10 A3002 RMK A01 T02361099  RH  010%=      5-min Rain = 0
KVA1 240007Z 26009KT 24/M10 A3002 RMK A01 T02351099  RH  010%=      5-min Rain = 0
KVA1 240008Z 26010KT 24/M10 A3002 RMK A01 T02351099  RH  010%=      5-min Rain = 0
KVA1 240009Z 26008KT 23/M10 A3002 RMK A01 T02341100  RH  010%=      5-min Rain = 0
KVA1 240010Z 27008KT 23/M10 A3002 RMK A01 T02331101  RH  010%=      5-min Rain = 0
KVA1 240011Z 27009KT 23/M10 A3002 RMK A01 T02331099  RH  010%=      5-min Rain = 0
KVA1 240012Z 25008KT 23/M10 A3002 RMK A01 T02331098  RH  010%=      5-min Rain = 0
KVA1 240013Z 25012KT 23/M10 A3002 RMK A01 T02331100  RH  010%=      5-min Rain = 0
KVA1 240014Z 25011KT 23/M10 A3002 RMK A01 T02331101  RH  010%=      5-min Rain = 0
KVA1 240015Z 25010KT 23/M10 A3002 RMK A01 T02321101  RH  010%=      5-min Rain = 0
KVA1 240016Z 24011KT 23/M10 A3002 RMK A01 T02321102  RH  010%=      5-min Rain = 0
KVA1 240017Z 24009KT 23/M10 A3002 RMK A01 T02311103  RH  010%=      5-min Rain = 0
KVA1 240018Z 24007KT 23/M10 A3002 RMK A01 T02311102  RH  010%=      5-min Rain = 0
KVA1 240019Z 24008KT 23/M10 A3002 RMK A01 T02311101  RH  010%=      5-min Rain = 0
KVA1 240020Z 24007KT 23/M10 A3002 RMK A01 T02311100  RH  010%=      5-min Rain = 0
KVA1 240021Z 24012KT 23/M10 A3002 RMK A01 T02311099  RH  010%=      5-min Rain = 0
KVA1 240022Z 25011KT 23/M10 A3002 RMK A01 T02311099  RH  010%=      5-min Rain = 0
KVA1 240023Z 25010KT 23/M10 A3002 RMK A01 T02311099  RH  010%=      5-min Rain = 0
KVA1 240024Z 25010KT 23/M10 A3002 RMK A01 T02311100  RH  010%=      5-min Rain = 0
KVA1 240025Z 25011KT 23/M10 A3002 RMK A01 T02311101  RH  010%=      5-min Rain = 0
KVA1 240026Z 25009KT 23/M10 A3002 RMK A01 T02301103  RH  010%=      5-min Rain = 0
KVA1 240027Z 24008KT 23/M10 A3002 RMK A01 T02301104  RH  010%=      5-min Rain = 0
KVA1 240028Z 23010KT 23/M10 A3002 RMK A01 T02301104  RH  010%=      5-min Rain = 0
KVA1 240029Z 23009KT 23/M11 A3002 RMK A01 T02301106  RH  010%=      5-min Rain = 0
KVA1 240030Z 24012KT 23/M11 A3002 RMK A01 T02301106  RH  010%=      5-min Rain = 0
KVA1 240031Z 24011KT 23/M11 A3002 RMK A01 T02291106  RH  010%=      5-min Rain = 0
KVA1 240032Z 25009KT 23/M11 A3002 RMK A01 T02291106  RH  010%=      5-min Rain = 0
KVA1 240033Z 25011KT 23/M11 A3002 RMK A01 T02291107  RH  010%=      5-min Rain = 0
KVA1 240034Z 25009KT 23/M11 A3002 RMK A01 T02291109  RH  010%=      5-min Rain = 0
KVA1 240035Z 25008KT 23/M11 A3002 RMK A01 T02281110  RH  010%=      5-min Rain = 0
KVA1 240036Z 26009KT 23/M11 A3002 RMK A01 T02281109  RH  010%=      5-min Rain = 0
KVA1 240037Z 26009KT 23/M11 A3002 RMK A01 T02281108  RH  010%=      5-min Rain = 0
KVA1 240038Z 26009KT 23/M11 A3002 RMK A01 T02281105  RH  010%=      5-min Rain = 0
KVA1 240039Z 26008KT 23/M10 A3002 RMK A01 T02271104  RH  010%=      5-min Rain = 0
KVA1 240040Z 26008KT 23/M10 A3002 RMK A01 T02271104  RH  010%=      5-min Rain = 0
KVA1 240041Z 26006KT 23/M10 A3002 RMK A01 T02261104  RH  010%=      5-min Rain = 0
KVA1 240042Z 26006KT 23/M10 A3002 RMK A01 T02261104  RH  010%=      5-min Rain = 0
KVA1 240043Z 25006KT 23/M10 A3002 RMK A01 T02261104  RH  010%=      5-min Rain = 0
KVA1 240044Z 27006KT 23/M10 A3002 RMK A01 T02261103  RH  010%=      5-min Rain = 0
KVA1 240045Z 27007KT 23/M10 A3002 RMK A01 T02261102  RH  010%=      5-min Rain = 0
KVA1 240046Z 27006KT 23/M10 A3002 RMK A01 T02251102  RH  010%=      5-min Rain = 0
KVA1 240047Z 28006KT 22/M10 A3002 RMK A01 T02241102  RH  010%=      5-min Rain = 0
KVA1 240048Z 27006KT 22/M10 A3002 RMK A01 T02241102  RH  010%=      5-min Rain = 0
KVA1 240049Z 27007KT 22/M10 A3002 RMK A01 T02241100  RH  011%=      5-min Rain = 0
KVA1 240050Z 27007KT 22/M10 A3003 RMK A01 T02231100  RH  011%=      5-min Rain = 0
KVA1 240051Z 27008KT 22/M10 A3003 RMK A01 T02231100  RH  011%=      5-min Rain = 0
KVA1 240052Z 27008KT 22/M10 A3003 RMK A01 T02221100  RH  011%=      5-min Rain = 0
KVA1 240053Z 28009KT 22/M10 A3003 RMK A01 T02211101  RH  011%=      5-min Rain = 0
KVA1 240054Z 28009KT 22/M10 A3003 RMK A01 T02211101  RH  011%=      5-min Rain = 0
KVA1 240055Z 28010KT 22/M10 A3003 RMK A01 T02201101  RH  011%=      5-min Rain = 0
KVA1 240056Z 27008KT 22/M10 A3003 RMK A01 T02191102  RH  011%=      5-min Rain = 0
KVA1 240057Z 27008KT 22/M10 A3003 RMK A01 T02191102  RH  011%=      5-min Rain = 0
KVA1 240058Z 27008KT 22/M10 A3003 RMK A01 T02181102  RH  011%=      5-min Rain = 0
KVA1 240059Z 27008KT 22/M10 A3003 RMK A01 T02181101  RH  011%=      5-min Rain = 0
KVA1 240100Z 28006KT 22/M10 A3003 RMK A01 T02181102  RH  011%=      5-min Rain = 0
KVA1 240101Z 27007KT 22/M10 A3003 RMK A01 T02171101  RH  011%=      5-min Rain = 0
KVA1 240102Z 28008KT 22/M10 A3003 RMK A01 T02161102  RH  011%=      5-min Rain = 0
KVA1 240103Z 28007KT 22/M10 A3003 RMK A01 T02151103  RH  011%=      5-min Rain = 0
KVA1 240104Z 28007KT 21/M10 A3003 RMK A01 T02141103  RH  011%=      5-min Rain = 0
KVA1 240105Z 28007KT 21/M10 A3003 RMK A01 T02131103  RH  011%=      5-min Rain = 0
KVA1 240106Z 28007KT 21/M10 A3003 RMK A01 T02121103  RH  011%=      5-min Rain = 0
KVA1 240107Z 27007KT 21/M10 A3003 RMK A01 T02111103  RH  011%=      5-min Rain = 0
KVA1 240108Z 27006KT 21/M10 A3003 RMK A01 T02101103  RH  011%=      5-min Rain = 0
KVA1 240109Z 27007KT 21/M10 A3003 RMK A01 T02101103  RH  011%=      5-min Rain = 0
KVA1 240110Z 27008KT 21/M10 A3003 RMK A01 T02091103  RH  011%=      5-min Rain = 0
KVA1 240111Z 27007KT 21/M10 A3003 RMK A01 T02091102  RH  011%=      5-min Rain = 0
KVA1 240112Z 28008KT 21/M10 A3003 RMK A01 T02091101  RH  012%=      5-min Rain = 0
KVA1 240113Z 27007KT 21/M10 A3003 RMK A01 T02081101  RH  012%=      5-min Rain = 0
KVA1 240114Z 28008KT 21/M10 A3003 RMK A01 T02071101  RH  012%=      5-min Rain = 0
KVA1 240115Z 27008KT 21/M10 A3003 RMK A01 T02071101  RH  012%=      5-min Rain = 0
KVA1 240116Z 28007KT 21/M10 A3003 RMK A01 T02071101  RH  012%=      5-min Rain = 0
KVA1 240117Z 28007KT 21/M10 A3003 RMK A01 T02061101  RH  012%=      5-min Rain = 0
KVA1 240118Z 28007KT 21/M10 A3003 RMK A01 T02061101  RH  012%=      5-min Rain = 0
KVA1 240119Z 28007KT 20/M10 A3003 RMK A01 T02041101  RH  012%=      5-min Rain = 0
KVA1 240120Z 28006KT 20/M10 A3003 RMK A01 T02041101  RH  012%=      5-min Rain = 0
KVA1 240121Z 28006KT 20/M10 A3003 RMK A01 T02021101  RH  012%=      5-min Rain = 0
KVA1 240122Z 28006KT 20/M10 A3003 RMK A01 T02021100  RH  012%=      5-min Rain = 0
KVA1 240123Z 27007KT 20/M10 A3003 RMK A01 T02011100  RH  012%=      5-min Rain = 0
KVA1 240124Z 28006KT 20/M10 A3003 RMK A01 T02011100  RH  012%=      5-min Rain = 0
KVA1 240125Z 28006KT 20/M10 A3003 RMK A01 T02001100  RH  012%=      5-min Rain = 0
KVA1 240126Z 27006KT 20/M10 A3003 RMK A01 T01991099  RH  012%=      5-min Rain = 0
KVA1 240127Z 28006KT 20/M10 A3003 RMK A01 T01981100  RH  012%=      5-min Rain = 0
KVA1 240128Z 28007KT 20/M10 A3003 RMK A01 T01981099  RH  013%=      5-min Rain = 0
KVA1 240129Z 28006KT 20/M10 A3003 RMK A01 T01971099  RH  013%=      5-min Rain = 0
KVA1 240130Z 27007KT 20/M10 A3003 RMK A01 T01971099  RH  013%=      5-min Rain = 0
KVA1 240131Z 28006KT 20/M10 A3004 RMK A01 T01961099  RH  013%=      5-min Rain = 0
KVA1 240132Z 28006KT 20/M10 A3004 RMK A01 T01951098  RH  013%=      5-min Rain = 0
KVA1 240133Z 28006KT 19/M10 A3004 RMK A01 T01941098  RH  013%=      5-min Rain = 0
KVA1 240134Z 28006KT 19/M10 A3004 RMK A01 T01941098  RH  013%=      5-min Rain = 0
KVA1 240135Z 27006KT 19/M10 A3004 RMK A01 T01941098  RH  013%=      5-min Rain = 0
KVA1 240136Z 28006KT 19/M10 A3004 RMK A01 T01941098  RH  013%=      5-min Rain = 0
KVA1 240137Z 28006KT 19/M10 A3004 RMK A01 T01941098  RH  013%=      5-min Rain = 0
KVA1 240138Z 27006KT 19/M10 A3004 RMK A01 T01931097  RH  013%=      5-min Rain = 0
KVA1 240139Z 28007KT 19/M10 A3004 RMK A01 T01941097  RH  013%=      5-min Rain = 0
KVA1 240140Z 27006KT 19/M10 A3004 RMK A01 T01931097  RH  013%=      5-min Rain = 0
KVA1 240141Z 28006KT 19/M10 A3004 RMK A01 T01921098  RH  013%=      5-min Rain = 0
KVA1 240142Z 28007KT 19/M10 A3004 RMK A01 T01931097  RH  013%=      5-min Rain = 0
KVA1 240143Z 28007KT 19/M10 A3004 RMK A01 T01921097  RH  013%=      5-min Rain = 0
KVA1 240144Z 28007KT 19/M10 A3004 RMK A01 T01921096  RH  013%=      5-min Rain = 0
KVA1 240145Z 28007KT 19/M10 A3004 RMK A01 T01911096  RH  013%=      5-min Rain = 0
KVA1 240146Z 28007KT 19/M10 A3004 RMK A01 T01911096  RH  013%=      5-min Rain = 0
KVA1 240147Z 28007KT 19/M10 A3004 RMK A01 T01901096  RH  013%=      5-min Rain = 0
KVA1 240148Z 28007KT 19/M10 A3004 RMK A01 T01891096  RH  014%=      5-min Rain = 0
KVA1 240149Z 28007KT 19/M10 A3004 RMK A01 T01891096  RH  014%=      5-min Rain = 0
KVA1 240150Z 28007KT 19/M10 A3004 RMK A01 T01881096  RH  014%=      5-min Rain = 0
KVA1 240151Z 28006KT 19/M10 A3004 RMK A01 T01881096  RH  014%=      5-min Rain = 0
KVA1 240152Z 28007KT 19/M10 A3004 RMK A01 T01871096  RH  014%=      5-min Rain = 0
KVA1 240153Z 28007KT 19/M10 A3004 RMK A01 T01861096  RH  014%=      5-min Rain = 0
KVA1 240154Z 27007KT 19/M10 A3004 RMK A01 T01861096  RH  014%=      5-min Rain = 0
KVA1 240155Z 28006KT 19/M10 A3004 RMK A01 T01851096  RH  014%=      5-min Rain = 0
KVA1 240156Z 27006KT 19/M10 A3004 RMK A01 T01851096  RH  014%=      5-min Rain = 0
KVA1 240157Z 27006KT 18/M10 A3004 RMK A01 T01841096  RH  014%=      5-min Rain = 0
KVA1 240158Z 27006KT 18/M10 A3004 RMK A01 T01841096  RH  014%=      5-min Rain = 0
KVA1 240159Z 27006KT 18/M10 A3004 RMK A01 T01831096  RH  014%=      5-min Rain = 0
KVA1 240200Z 27006KT 18/M10 A3005 RMK A01 T01831096  RH  014%=      5-min Rain = 0
KVA1 240201Z 27005KT 18/M10 A3005 RMK A01 T01821096  RH  014%=      5-min Rain = 0
KVA1 240202Z 27006KT 18/M10 A3005 RMK A01 T01811096  RH  014%=      5-min Rain = 0
KVA1 240203Z 28006KT 18/M10 A3005 RMK A01 T01801096  RH  014%=      5-min Rain = 0
KVA1 240204Z 28006KT 18/M10 A3005 RMK A01 T01791096  RH  014%=      5-min Rain = 0
KVA1 240205Z 28006KT 18/M10 A3005 RMK A01 T01791096  RH  014%=      5-min Rain = 0
KVA1 240206Z 28007KT 18/M10 A3005 RMK A01 T01771097  RH  015%=      5-min Rain = 0
KVA1 240207Z 28007KT 18/M10 A3005 RMK A01 T01761097  RH  015%=      5-min Rain = 0
KVA1 240208Z 28007KT 18/M10 A3005 RMK A01 T01751097  RH  015%=      5-min Rain = 0
KVA1 240209Z 28007KT 18/M10 A3005 RMK A01 T01751096  RH  015%=      5-min Rain = 0
KVA1 240210Z 28007KT 18/M10 A3005 RMK A01 T01751095  RH  015%=      5-min Rain = 0
KVA1 240211Z 28006KT 18/M10 A3005 RMK A01 T01751095  RH  015%=      5-min Rain = 0
KVA1 240212Z 28007KT 18/M10 A3005 RMK A01 T01751095  RH  015%=      5-min Rain = 0
KVA1 240213Z 28006KT 17/M10 A3005 RMK A01 T01741095  RH  015%=      5-min Rain = 0
KVA1 240214Z 28006KT 17/M10 A3005 RMK A01 T01741095  RH  015%=      5-min Rain = 0
KVA1 240215Z 29006KT 17/M10 A3005 RMK A01 T01731095  RH  015%=      5-min Rain = 0
KVA1 240216Z 29006KT 17/M10 A3005 RMK A01 T01721096  RH  015%=      5-min Rain = 0
KVA1 240217Z 29008KT 17/M10 A3005 RMK A01 T01701096  RH  015%=      5-min Rain = 0
KVA1 240218Z 29007KT 17/M10 A3005 RMK A01 T01701095  RH  015%=      5-min Rain = 0
KVA1 240219Z 29008KT 17/M09 A3005 RMK A01 T01701094  RH  016%=      5-min Rain = 0
KVA1 240220Z 29007KT 17/M09 A3005 RMK A01 T01711093  RH  016%=      5-min Rain = 0
KVA1 240221Z 29007KT 17/M09 A3005 RMK A01 T01721092  RH  016%=      5-min Rain = 0
KVA1 240222Z 30006KT 17/M09 A3005 RMK A01 T01721092  RH  015%=      5-min Rain = 0
KVA1 240223Z 29007KT 17/M09 A3005 RMK A01 T01721093  RH  015%=      5-min Rain = 0
KVA1 240224Z 29006KT 17/M09 A3005 RMK A01 T01711093  RH  016%=      5-min Rain = 0
KVA1 240225Z 29007KT 17/M09 A3005 RMK A01 T01701093  RH  016%=      5-min Rain = 0
KVA1 240226Z 30007KT 17/M09 A3005 RMK A01 T01691092  RH  016%=      5-min Rain = 0
KVA1 240227Z 30006KT 17/M09 A3005 RMK A01 T01681092  RH  016%=      5-min Rain = 0
KVA1 240228Z 30006KT 17/M09 A3005 RMK A01 T01681092  RH  016%=      5-min Rain = 0
KVA1 240229Z 29006KT 17/M09 A3005 RMK A01 T01671092  RH  016%=      5-min Rain = 0
KVA1 240230Z 29006KT 17/M09 A3005 RMK A01 T01661092  RH  016%=      5-min Rain = 0
KVA1 240231Z 29006KT 17/M09 A3005 RMK A01 T01651092  RH  016%=      5-min Rain = 0
KVA1 240232Z 29006KT 17/M09 A3005 RMK A01 T01651092  RH  016%=      5-min Rain = 0
KVA1 240233Z 29006KT 16/M09 A3005 RMK A01 T01641091  RH  017%=      5-min Rain = 0
KVA1 240234Z 29006KT 16/M09 A3005 RMK A01 T01641091  RH  017%=      5-min Rain = 0
KVA1 240235Z 29006KT 16/M09 A3005 RMK A01 T01631091  RH  017%=      5-min Rain = 0
KVA1 240236Z 29006KT 16/M09 A3005 RMK A01 T01631091  RH  017%=      5-min Rain = 0
KVA1 240237Z 29005KT 16/M09 A3005 RMK A01 T01621091  RH  017%=      5-min Rain = 0
KVA1 240238Z 29005KT 16/M09 A3005 RMK A01 T01621090  RH  017%=      5-min Rain = 0
KVA1 240239Z 29005KT 16/M09 A3005 RMK A01 T01611091  RH  017%=      5-min Rain = 0
KVA1 240240Z 28005KT 16/M09 A3005 RMK A01 T01611091  RH  017%=      5-min Rain = 0
KVA1 240241Z 29006KT 16/M09 A3006 RMK A01 T01601090  RH  017%=      5-min Rain = 0
KVA1 240242Z 29006KT 16/M09 A3006 RMK A01 T01591091  RH  017%=      5-min Rain = 0
KVA1 240243Z 28006KT 16/M09 A3006 RMK A01 T01591090  RH  017%=      5-min Rain = 0
KVA1 240244Z 29006KT 16/M09 A3006 RMK A01 T01581090  RH  017%=      5-min Rain = 0
KVA1 240245Z 28006KT 16/M09 A3006 RMK A01 T01571091  RH  017%=      5-min Rain = 0
KVA1 240246Z 28006KT 16/M09 A3006 RMK A01 T01561090  RH  017%=      5-min Rain = 0
KVA1 240247Z 28007KT 16/M09 A3006 RMK A01 T01561090  RH  018%=      5-min Rain = 0
KVA1 240248Z 28007KT 16/M09 A3006 RMK A01 T01561090  RH  018%=      5-min Rain = 0
KVA1 240249Z 27007KT 16/M09 A3006 RMK A01 T01551090  RH  018%=      5-min Rain = 0
KVA1 240250Z 27007KT 16/M09 A3006 RMK A01 T01551089  RH  018%=      5-min Rain = 0
KVA1 240251Z 28007KT 16/M09 A3006 RMK A01 T01551089  RH  018%=      5-min Rain = 0
KVA1 240252Z 28008KT 16/M09 A3006 RMK A01 T01551088  RH  018%=      5-min Rain = 0
KVA1 240253Z 28007KT 16/M09 A3007 RMK A01 T01551088  RH  018%=      5-min Rain = 0
KVA1 240254Z 28008KT 16/M09 A3007 RMK A01 T01551088  RH  018%=      5-min Rain = 0
KVA1 240255Z 29008KT 16/M09 A3007 RMK A01 T01561088  RH  018%=      5-min Rain = 0
KVA1 240256Z 29008KT 16/M09 A3007 RMK A01 T01571087  RH  018%=      5-min Rain = 0
KVA1 240257Z 29008KT 16/M09 A3007 RMK A01 T01591086  RH  018%=      5-min Rain = 0
KVA1 240258Z 29007KT 16/M09 A3007 RMK A01 T01601086  RH  018%=      5-min Rain = 0
KVA1 240259Z 29007KT 16/M09 A3007 RMK A01 T01611086  RH  017%=      5-min Rain = 0
KVA1 240300Z 29007KT 16/M09 A3007 RMK A01 T01631085  RH  017%=      5-min Rain = 0
KVA1 240301Z 29006KT 16/M09 A3007 RMK A01 T01631085  RH  017%=      5-min Rain = 0
KVA1 240302Z 29006KT 16/M09 A3007 RMK A01 T01631086  RH  017%=      5-min Rain = 0
KVA1 240303Z 29006KT 16/M09 A3007 RMK A01 T01631086  RH  017%=      5-min Rain = 0
KVA1 240304Z 29006KT 16/M09 A3007 RMK A01 T01621087  RH  017%=      5-min Rain = 0
KVA1 240305Z 29006KT 16/M09 A3007 RMK A01 T01611087  RH  017%=      5-min Rain = 0
KVA1 240306Z 29007KT 16/M09 A3007 RMK A01 T01601087  RH  017%=      5-min Rain = 0
KVA1 240307Z 29007KT 16/M09 A3007 RMK A01 T01581087  RH  018%=      5-min Rain = 0
KVA1 240308Z 28007KT 16/M09 A3007 RMK A01 T01571087  RH  018%=      5-min Rain = 0
KVA1 240309Z 28007KT 16/M09 A3007 RMK A01 T01561087  RH  018%=      5-min Rain = 0
KVA1 240310Z 29007KT 16/M09 A3007 RMK A01 T01561087  RH  018%=      5-min Rain = 0
KVA1 240311Z 29007KT 16/M09 A3007 RMK A01 T01551087  RH  018%=      5-min Rain = 0
KVA1 240312Z 29007KT 16/M09 A3007 RMK A01 T01551086  RH  018%=      5-min Rain = 0
KVA1 240313Z 29007KT 15/M09 A3007 RMK A01 T01541086  RH  018%=      5-min Rain = 0
KVA1 240314Z 29006KT 15/M09 A3007 RMK A01 T01531086  RH  018%=      5-min Rain = 0
KVA1 240315Z 28006KT 15/M09 A3007 RMK A01 T01521086  RH  018%=      5-min Rain = 0
KVA1 240316Z 28006KT 15/M09 A3007 RMK A01 T01511086  RH  019%=      5-min Rain = 0
KVA1 240317Z 28006KT 15/M09 A3007 RMK A01 T01511086  RH  019%=      5-min Rain = 0
KVA1 240318Z 28005KT 15/M09 A3007 RMK A01 T01501086  RH  019%=      5-min Rain = 0
KVA1 240319Z 28005KT 15/M09 A3007 RMK A01 T01491086  RH  019%=      5-min Rain = 0
KVA1 240320Z 28005KT 15/M09 A3008 RMK A01 T01481086  RH  019%=      5-min Rain = 0
KVA1 240321Z 28005KT 15/M09 A3008 RMK A01 T01471086  RH  019%=      5-min Rain = 0
KVA1 240322Z 28005KT 15/M09 A3008 RMK A01 T01461086  RH  019%=      5-min Rain = 0
KVA1 240323Z 28004KT 15/M09 A3008 RMK A01 T01461086  RH  019%=      5-min Rain = 0
KVA1 240324Z 28004KT 15/M09 A3008 RMK A01 T01451086  RH  019%=      5-min Rain = 0
KVA1 240325Z 28004KT 14/M09 A3008 RMK A01 T01441086  RH  019%=      5-min Rain = 0
KVA1 240326Z 28004KT 14/M09 A3008 RMK A01 T01431086  RH  020%=      5-min Rain = 0
KVA1 240327Z 28004KT 14/M09 A3008 RMK A01 T01421086  RH  020%=      5-min Rain = 0
KVA1 240328Z 28004KT 14/M09 A3008 RMK A01 T01421086  RH  020%=      5-min Rain = 0
KVA1 240329Z 27004KT 14/M09 A3008 RMK A01 T01411086  RH  020%=      5-min Rain = 0
KVA1 240330Z 27004KT 14/M09 A3008 RMK A01 T01401086  RH  020%=      5-min Rain = 0
KVA1 240331Z 27004KT 14/M09 A3008 RMK A01 T01391086  RH  020%=      5-min Rain = 0
KVA1 240332Z 27004KT 14/M09 A3008 RMK A01 T01381085  RH  020%=      5-min Rain = 0
KVA1 240333Z 27004KT 14/M09 A3008 RMK A01 T01381085  RH  021%=      5-min Rain = 0
KVA1 240334Z 27004KT 14/M09 A3008 RMK A01 T01371085  RH  021%=      5-min Rain = 0
KVA1 240335Z 27004KT 14/M09 A3008 RMK A01 T01361085  RH  021%=      5-min Rain = 0
KVA1 240336Z 27004KT 14/M09 A3008 RMK A01 T01351085  RH  021%=      5-min Rain = 0
KVA1 240337Z 26004KT 14/M09 A3008 RMK A01 T01351085  RH  021%=      5-min Rain = 0
KVA1 240338Z 25004KT 14/M08 A3008 RMK A01 T01351084  RH  021%=      5-min Rain = 0
KVA1 240339Z 25004KT 14/M08 A3008 RMK A01 T01351084  RH  021%=      5-min Rain = 0
KVA1 240340Z 25005KT 14/M08 A3008 RMK A01 T01351084  RH  021%=      5-min Rain = 0
KVA1 240341Z 25005KT 14/M08 A3008 RMK A01 T01351084  RH  021%=      5-min Rain = 0
KVA1 240342Z 26005KT 13/M08 A3008 RMK A01 T01341084  RH  021%=      5-min Rain = 0
KVA1 240343Z 26005KT 13/M08 A3008 RMK A01 T01331084  RH  021%=      5-min Rain = 0
KVA1 240344Z 26005KT 13/M08 A3008 RMK A01 T01331084  RH  021%=      5-min Rain = 0
KVA1 240345Z 26005KT 13/M08 A3008 RMK A01 T01331083  RH  021%=      5-min Rain = 0
KVA1 240346Z 27005KT 13/M08 A3008 RMK A01 T01331084  RH  021%=      5-min Rain = 0
KVA1 240347Z 27005KT 13/M08 A3009 RMK A01 T01331084  RH  021%=      5-min Rain = 0
KVA1 240348Z 26005KT 13/M08 A3009 RMK A01 T01331084  RH  021%=      5-min Rain = 0
KVA1 240349Z 26004KT 13/M08 A3009 RMK A01 T01331083  RH  021%=      5-min Rain = 0
KVA1 240350Z 26004KT 13/M08 A3009 RMK A01 T01331082  RH  022%=      5-min Rain = 0
KVA1 240351Z 26004KT 13/M08 A3009 RMK A01 T01331083  RH  022%=      5-min Rain = 0
KVA1 240352Z 26005KT 13/M08 A3009 RMK A01 T01321083  RH  022%=      5-min Rain = 0
KVA1 240353Z 25005KT 13/M08 A3009 RMK A01 T01321083  RH  022%=      5-min Rain = 0
KVA1 240354Z 25005KT 13/M08 A3009 RMK A01 T01321082  RH  022%=      5-min Rain = 0
KVA1 240355Z 25005KT 13/M08 A3009 RMK A01 T01321083  RH  022%=      5-min Rain = 0
KVA1 240356Z 25005KT 13/M08 A3009 RMK A01 T01321082  RH  022%=      5-min Rain = 0
KVA1 240357Z 25005KT 13/M08 A3009 RMK A01 T01321083  RH  022%=      5-min Rain = 0
KVA1 240358Z 25005KT 13/M08 A3009 RMK A01 T01321082  RH  022%=      5-min Rain = 0
KVA1 240359Z 26005KT 13/M08 A3009 RMK A01 T01311083  RH  022%=      5-min Rain = 0
KVA1 240400Z 26005KT 13/M08 A3009 RMK A01 T01311082  RH  022%=      5-min Rain = 0
KVA1 240401Z 26005KT 13/M08 A3009 RMK A01 T01311083  RH  022%=      5-min Rain = 0
KVA1 240402Z 26005KT 13/M08 A3009 RMK A01 T01311082  RH  022%=      5-min Rain = 0
KVA1 240403Z 26005KT 13/M08 A3009 RMK A01 T01331081  RH  022%=      5-min Rain = 0
KVA1 240404Z 27004KT 14/M08 A3009 RMK A01 T01351081  RH  021%=      5-min Rain = 0
KVA1 240405Z 26005KT 14/M08 A3009 RMK A01 T01361081  RH  021%=      5-min Rain = 0
KVA1 240406Z 26005KT 14/M08 A3009 RMK A01 T01371081  RH  021%=      5-min Rain = 0
KVA1 240407Z 26005KT 14/M08 A3009 RMK A01 T01401079  RH  021%=      5-min Rain = 0
KVA1 240408Z 26005KT 14/M08 A3009 RMK A01 T01421079  RH  021%=      5-min Rain = 0
KVA1 240409Z 26004KT 15/M08 A3009 RMK A01 T01451078  RH  021%=      5-min Rain = 0
KVA1 240410Z 26004KT 15/M08 A3009 RMK A01 T01471078  RH  020%=      5-min Rain = 0
KVA1 240411Z 25004KT 15/M08 A3009 RMK A01 T01471079  RH  020%=      5-min Rain = 0
KVA1 240412Z 25004KT 15/M08 A3009 RMK A01 T01481079  RH  020%=      5-min Rain = 0
KVA1 240413Z 25004KT 15/M08 A3009 RMK A01 T01481079  RH  020%=      5-min Rain = 0
KVA1 240414Z 25004KT 15/M08 A3009 RMK A01 T01491079  RH  020%=      5-min Rain = 0
KVA1 240415Z 25004KT 15/M08 A3009 RMK A01 T01491079  RH  020%=      5-min Rain = 0
KVA1 240416Z 24003KT 15/M08 A3009 RMK A01 T01491079  RH  020%=      5-min Rain = 0
KVA1 240417Z 24003KT 15/M08 A3009 RMK A01 T01491079  RH  020%=      5-min Rain = 0
KVA1 240418Z 26004KT 15/M08 A3009 RMK A01 T01481079  RH  020%=      5-min Rain = 0
KVA1 240419Z 25003KT 15/M08 A3009 RMK A01 T01481079  RH  020%=      5-min Rain = 0
KVA1 240420Z 25002KT 15/M08 A3009 RMK A01 T01481079  RH  020%=      5-min Rain = 0
KVA1 240421Z 25002KT 15/M08 A3009 RMK A01 T01471079  RH  020%=      5-min Rain = 0
KVA1 240422Z 26002KT 15/M08 A3009 RMK A01 T01461079  RH  020%=      5-min Rain = 0
KVA1 240423Z 24002KT 15/M08 A3009 RMK A01 T01451079  RH  020%=      5-min Rain = 0
KVA1 240424Z 25001KT 15/M08 A3009 RMK A01 T01451079  RH  020%=      5-min Rain = 0
KVA1 240425Z 25001KT 14/M08 A3009 RMK A01 T01441079  RH  021%=      5-min Rain = 0
KVA1 240426Z 24001KT 14/M08 A3009 RMK A01 T01441079  RH  021%=      5-min Rain = 0
KVA1 240427Z 21000KT 14/M08 A3009 RMK A01 T01431079  RH  021%=      5-min Rain = 0
KVA1 240428Z 18001KT 14/M08 A3009 RMK A01 T01421079  RH  021%=      5-min Rain = 0
KVA1 240429Z 17001KT 14/M08 A3009 RMK A01 T01421079  RH  021%=      5-min Rain = 0
KVA1 240430Z 16001KT 14/M08 A3009 RMK A01 T01421079  RH  021%=      5-min Rain = 0
KVA1 240431Z 16002KT 14/M08 A3009 RMK A01 T01401080  RH  021%=      5-min Rain = 0
KVA1 240432Z 16003KT 14/M08 A3009 RMK A01 T01371080  RH  021%=      5-min Rain = 0
KVA1 240433Z 15004KT 13/M08 A3009 RMK A01 T01331081  RH  022%=      5-min Rain = 0
KVA1 240434Z 15004KT 13/M08 A3009 RMK A01 T01291083  RH  022%=      5-min Rain = 0
KVA1 240435Z 15003KT 13/M08 A3009 RMK A01 T01271083  RH  022%=      5-min Rain = 0
KVA1 240436Z 15003KT 13/M08 A3009 RMK A01 T01261082  RH  023%=      5-min Rain = 0
KVA1 240437Z 14003KT 13/M08 A3009 RMK A01 T01261082  RH  023%=      5-min Rain = 0
KVA1 240438Z 13003KT 13/M08 A3009 RMK A01 T01261082  RH  023%=      5-min Rain = 0
KVA1 240439Z 14003KT 13/M08 A3009 RMK A01 T01261083  RH  022%=      5-min Rain = 0
KVA1 240440Z 14002KT 13/M08 A3009 RMK A01 T01261082  RH  023%=      5-min Rain = 0
KVA1 240441Z 15002KT 13/M08 A3009 RMK A01 T01281081  RH  022%=      5-min Rain = 0
KVA1 240442Z 12002KT 13/M08 A3009 RMK A01 T01291081  RH  022%=      5-min Rain = 0
KVA1 240443Z 12002KT 13/M08 A3009 RMK A01 T01311080  RH  022%=      5-min Rain = 0
KVA1 240444Z 12002KT 13/M08 A3009 RMK A01 T01331080  RH  022%=      5-min Rain = 0
KVA1 240445Z 16002KT 13/M08 A3009 RMK A01 T01341080  RH  022%=      5-min Rain = 0
KVA1 240446Z 18001KT 13/M08 A3009 RMK A01 T01341079  RH  022%=      5-min Rain = 0
KVA1 240447Z 00000KT 14/M08 A3009 RMK A01 T01371078  RH  022%=      5-min Rain = 0
KVA1 240448Z 18001KT 14/M08 A3009 RMK A01 T01381078  RH  021%=      5-min Rain = 0
KVA1 240449Z 16000KT 14/M08 A3009 RMK A01 T01411078  RH  021%=      5-min Rain = 0
KVA1 240450Z 18001KT 14/M08 A3009 RMK A01 T01421078  RH  021%=      5-min Rain = 0
KVA1 240451Z 22001KT 14/M08 A3009 RMK A01 T01421078  RH  021%=      5-min Rain = 0
KVA1 240452Z 22002KT 14/M08 A3009 RMK A01 T01431078  RH  021%=      5-min Rain = 0
KVA1 240453Z 23002KT 14/M08 A3009 RMK A01 T01441078  RH  021%=      5-min Rain = 0
KVA1 240454Z 22002KT 15/M08 A3009 RMK A01 T01471077  RH  021%=      5-min Rain = 0
KVA1 240455Z 23002KT 15/M08 A3009 RMK A01 T01471078  RH  020%=      5-min Rain = 0
KVA1 240456Z 23003KT 15/M08 A3009 RMK A01 T01461078  RH  020%=      5-min Rain = 0
KVA1 240457Z 24003KT 14/M08 A3009 RMK A01 T01441078  RH  021%=      5-min Rain = 0
KVA1 240458Z 24003KT 14/M08 A3009 RMK A01 T01441078  RH  021%=      5-min Rain = 0
KVA1 240459Z 24003KT 15/M08 A3009 RMK A01 T01451077  RH  021%=      5-min Rain = 0

Page generated in 0.0368 seconds.